<?xml version="1.0" encoding="UTF-8" standalone="no" ?>
<gpx xmlns="http://www.topografix.com/GPX/1/1" xmlns:xsi="http://www.w3.org/2001/XMLSchema-instance" xsi:schemaLocation="http://www.topografix.com/GPX/1/1 http://www.topografix.com/GPX/1/1/gpx.xsd" version="1.1" creator="VisuGPX - https://www.visugpx.com">
  <metadata>
    <name>RISLE06-14 11:04:35</name>
    <desc><![CDATA[Petit tour de la risle ]]></desc>
  </metadata>
  <trk>
    <name><![CDATA[RISLE06-14 11:04:35]]></name>
    <trkseg>
      <trkpt lat="49.08479" lon="0.76134">
        <ele>92.42</ele>
        <time>2020-06-14T06:56:10Z</time>
      </trkpt>
      <trkpt lat="49.08479" lon="0.76134">
        <ele>92.42</ele>
        <time>2020-06-14T06:56:11Z</time>
      </trkpt>
      <trkpt lat="49.08479" lon="0.76134">
        <ele>92.42</ele>
        <time>2020-06-14T06:56:36Z</time>
      </trkpt>
      <trkpt lat="49.08478" lon="0.76133">
        <ele>92.42</ele>
        <time>2020-06-14T06:57:06Z</time>
      </trkpt>
      <trkpt lat="49.08479" lon="0.76134">
        <ele>92.42</ele>
        <time>2020-06-14T06:57:31Z</time>
      </trkpt>
      <trkpt lat="49.08479" lon="0.76133">
        <ele>92.42</ele>
        <time>2020-06-14T06:57:57Z</time>
      </trkpt>
      <trkpt lat="49.08478" lon="0.76133">
        <ele>91.94</ele>
        <time>2020-06-14T06:58:30Z</time>
      </trkpt>
      <trkpt lat="49.08479" lon="0.76133">
        <ele>91.94</ele>
        <time>2020-06-14T06:59:05Z</time>
      </trkpt>
      <trkpt lat="49.08479" lon="0.76132">
        <ele>91.94</ele>
        <time>2020-06-14T06:59:23Z</time>
      </trkpt>
      <trkpt lat="49.08478" lon="0.76133">
        <ele>91.94</ele>
        <time>2020-06-14T06:59:47Z</time>
      </trkpt>
      <trkpt lat="49.08479" lon="0.76135">
        <ele>91.94</ele>
        <time>2020-06-14T07:00:01Z</time>
      </trkpt>
      <trkpt lat="49.0848" lon="0.76136">
        <ele>91.94</ele>
        <time>2020-06-14T07:00:02Z</time>
      </trkpt>
      <trkpt lat="49.0848" lon="0.76138">
        <ele>91.94</ele>
        <time>2020-06-14T07:00:03Z</time>
      </trkpt>
      <trkpt lat="49.0848" lon="0.7614">
        <ele>91.94</ele>
        <time>2020-06-14T07:00:04Z</time>
      </trkpt>
      <trkpt lat="49.08479" lon="0.76142">
        <ele>91.94</ele>
        <time>2020-06-14T07:00:05Z</time>
      </trkpt>
      <trkpt lat="49.08468" lon="0.76183">
        <ele>91.94</ele>
        <time>2020-06-14T07:00:19Z</time>
      </trkpt>
      <trkpt lat="49.08447" lon="0.76252">
        <ele>90.5</ele>
        <time>2020-06-14T07:00:35Z</time>
      </trkpt>
      <trkpt lat="49.08425" lon="0.76322">
        <ele>90.02</ele>
        <time>2020-06-14T07:00:50Z</time>
      </trkpt>
      <trkpt lat="49.08401" lon="0.76391">
        <ele>90.02</ele>
        <time>2020-06-14T07:01:06Z</time>
      </trkpt>
      <trkpt lat="49.08376" lon="0.76452">
        <ele>90.02</ele>
        <time>2020-06-14T07:01:21Z</time>
      </trkpt>
      <trkpt lat="49.08348" lon="0.76446">
        <ele>90.02</ele>
        <time>2020-06-14T07:01:30Z</time>
      </trkpt>
      <trkpt lat="49.08302" lon="0.76462">
        <ele>90.02</ele>
        <time>2020-06-14T07:01:44Z</time>
      </trkpt>
      <trkpt lat="49.08243" lon="0.76497">
        <ele>90.98</ele>
        <time>2020-06-14T07:02:02Z</time>
      </trkpt>
      <trkpt lat="49.08182" lon="0.76539">
        <ele>90.98</ele>
        <time>2020-06-14T07:02:20Z</time>
      </trkpt>
      <trkpt lat="49.0812" lon="0.76571">
        <ele>90.98</ele>
        <time>2020-06-14T07:02:38Z</time>
      </trkpt>
      <trkpt lat="49.08062" lon="0.76602">
        <ele>91.94</ele>
        <time>2020-06-14T07:02:55Z</time>
      </trkpt>
      <trkpt lat="49.07991" lon="0.76636">
        <ele>92.42</ele>
        <time>2020-06-14T07:03:15Z</time>
      </trkpt>
      <trkpt lat="49.07956" lon="0.76669">
        <ele>90.98</ele>
        <time>2020-06-14T07:03:26Z</time>
      </trkpt>
      <trkpt lat="49.07952" lon="0.7667">
        <ele>90.98</ele>
        <time>2020-06-14T07:03:27Z</time>
      </trkpt>
      <trkpt lat="49.07947" lon="0.7667">
        <ele>90.98</ele>
        <time>2020-06-14T07:03:28Z</time>
      </trkpt>
      <trkpt lat="49.07943" lon="0.7667">
        <ele>90.98</ele>
        <time>2020-06-14T07:03:29Z</time>
      </trkpt>
      <trkpt lat="49.0794" lon="0.76671">
        <ele>90.98</ele>
        <time>2020-06-14T07:03:30Z</time>
      </trkpt>
      <trkpt lat="49.07937" lon="0.76674">
        <ele>90.98</ele>
        <time>2020-06-14T07:03:31Z</time>
      </trkpt>
      <trkpt lat="49.07934" lon="0.7668">
        <ele>90.98</ele>
        <time>2020-06-14T07:03:32Z</time>
      </trkpt>
      <trkpt lat="49.07933" lon="0.76687">
        <ele>90.98</ele>
        <time>2020-06-14T07:03:33Z</time>
      </trkpt>
      <trkpt lat="49.07934" lon="0.76694">
        <ele>90.98</ele>
        <time>2020-06-14T07:03:34Z</time>
      </trkpt>
      <trkpt lat="49.07935" lon="0.767">
        <ele>90.98</ele>
        <time>2020-06-14T07:03:35Z</time>
      </trkpt>
      <trkpt lat="49.07936" lon="0.76707">
        <ele>90.98</ele>
        <time>2020-06-14T07:03:36Z</time>
      </trkpt>
      <trkpt lat="49.07938" lon="0.76714">
        <ele>90.98</ele>
        <time>2020-06-14T07:03:37Z</time>
      </trkpt>
      <trkpt lat="49.07964" lon="0.76838">
        <ele>90.5</ele>
        <time>2020-06-14T07:03:54Z</time>
      </trkpt>
      <trkpt lat="49.08005" lon="0.77005">
        <ele>90.5</ele>
        <time>2020-06-14T07:04:15Z</time>
      </trkpt>
      <trkpt lat="49.08045" lon="0.77168">
        <ele>90.02</ele>
        <time>2020-06-14T07:04:34Z</time>
      </trkpt>
      <trkpt lat="49.08051" lon="0.77195">
        <ele>89.54</ele>
        <time>2020-06-14T07:04:37Z</time>
      </trkpt>
      <trkpt lat="49.08053" lon="0.77214">
        <ele>89.54</ele>
        <time>2020-06-14T07:04:39Z</time>
      </trkpt>
      <trkpt lat="49.08068" lon="0.77366">
        <ele>89.54</ele>
        <time>2020-06-14T07:04:56Z</time>
      </trkpt>
      <trkpt lat="49.08073" lon="0.77498">
        <ele>89.54</ele>
        <time>2020-06-14T07:05:12Z</time>
      </trkpt>
      <trkpt lat="49.0804" lon="0.77647">
        <ele>89.54</ele>
        <time>2020-06-14T07:05:30Z</time>
      </trkpt>
      <trkpt lat="49.0802" lon="0.77693">
        <ele>89.54</ele>
        <time>2020-06-14T07:05:37Z</time>
      </trkpt>
      <trkpt lat="49.08017" lon="0.77703">
        <ele>89.54</ele>
        <time>2020-06-14T07:05:38Z</time>
      </trkpt>
      <trkpt lat="49.08007" lon="0.7773">
        <ele>89.54</ele>
        <time>2020-06-14T07:05:42Z</time>
      </trkpt>
      <trkpt lat="49.07965" lon="0.77831">
        <ele>90.98</ele>
        <time>2020-06-14T07:05:56Z</time>
      </trkpt>
      <trkpt lat="49.07918" lon="0.77957">
        <ele>91.94</ele>
        <time>2020-06-14T07:06:14Z</time>
      </trkpt>
      <trkpt lat="49.07892" lon="0.78029">
        <ele>91.94</ele>
        <time>2020-06-14T07:06:24Z</time>
      </trkpt>
      <trkpt lat="49.07848" lon="0.78153">
        <ele>92.42</ele>
        <time>2020-06-14T07:06:41Z</time>
      </trkpt>
      <trkpt lat="49.07821" lon="0.78239">
        <ele>93.87</ele>
        <time>2020-06-14T07:06:54Z</time>
      </trkpt>
      <trkpt lat="49.07816" lon="0.78259">
        <ele>94.35</ele>
        <time>2020-06-14T07:06:57Z</time>
      </trkpt>
      <trkpt lat="49.07813" lon="0.78265">
        <ele>94.83</ele>
        <time>2020-06-14T07:06:58Z</time>
      </trkpt>
      <trkpt lat="49.07809" lon="0.78271">
        <ele>94.83</ele>
        <time>2020-06-14T07:06:59Z</time>
      </trkpt>
      <trkpt lat="49.07806" lon="0.78273">
        <ele>94.83</ele>
        <time>2020-06-14T07:07:00Z</time>
      </trkpt>
      <trkpt lat="49.07802" lon="0.78276">
        <ele>94.83</ele>
        <time>2020-06-14T07:07:01Z</time>
      </trkpt>
      <trkpt lat="49.07798" lon="0.78277">
        <ele>94.83</ele>
        <time>2020-06-14T07:07:02Z</time>
      </trkpt>
      <trkpt lat="49.07793" lon="0.78279">
        <ele>94.83</ele>
        <time>2020-06-14T07:07:03Z</time>
      </trkpt>
      <trkpt lat="49.07789" lon="0.78281">
        <ele>94.83</ele>
        <time>2020-06-14T07:07:04Z</time>
      </trkpt>
      <trkpt lat="49.07784" lon="0.78281">
        <ele>94.83</ele>
        <time>2020-06-14T07:07:05Z</time>
      </trkpt>
      <trkpt lat="49.07769" lon="0.78281">
        <ele>94.83</ele>
        <time>2020-06-14T07:07:08Z</time>
      </trkpt>
      <trkpt lat="49.07765" lon="0.7828">
        <ele>94.83</ele>
        <time>2020-06-14T07:07:09Z</time>
      </trkpt>
      <trkpt lat="49.0768" lon="0.78299">
        <ele>92.42</ele>
        <time>2020-06-14T07:07:24Z</time>
      </trkpt>
      <trkpt lat="49.07634" lon="0.78326">
        <ele>91.46</ele>
        <time>2020-06-14T07:07:32Z</time>
      </trkpt>
      <trkpt lat="49.07605" lon="0.78351">
        <ele>91.46</ele>
        <time>2020-06-14T07:07:38Z</time>
      </trkpt>
      <trkpt lat="49.076" lon="0.78354">
        <ele>91.46</ele>
        <time>2020-06-14T07:07:39Z</time>
      </trkpt>
      <trkpt lat="49.07521" lon="0.78383">
        <ele>91.46</ele>
        <time>2020-06-14T07:07:54Z</time>
      </trkpt>
      <trkpt lat="49.07437" lon="0.78411">
        <ele>90.98</ele>
        <time>2020-06-14T07:08:10Z</time>
      </trkpt>
      <trkpt lat="49.07364" lon="0.7842">
        <ele>90.98</ele>
        <time>2020-06-14T07:08:25Z</time>
      </trkpt>
      <trkpt lat="49.07355" lon="0.7842">
        <ele>90.98</ele>
        <time>2020-06-14T07:08:27Z</time>
      </trkpt>
      <trkpt lat="49.0735" lon="0.7842">
        <ele>90.98</ele>
        <time>2020-06-14T07:08:28Z</time>
      </trkpt>
      <trkpt lat="49.07345" lon="0.7842">
        <ele>90.98</ele>
        <time>2020-06-14T07:08:29Z</time>
      </trkpt>
      <trkpt lat="49.07286" lon="0.78425">
        <ele>90.98</ele>
        <time>2020-06-14T07:08:41Z</time>
      </trkpt>
      <trkpt lat="49.0728" lon="0.78424">
        <ele>90.98</ele>
        <time>2020-06-14T07:08:42Z</time>
      </trkpt>
      <trkpt lat="49.07202" lon="0.78434">
        <ele>90.98</ele>
        <time>2020-06-14T07:08:57Z</time>
      </trkpt>
      <trkpt lat="49.07161" lon="0.78462">
        <ele>90.98</ele>
        <time>2020-06-14T07:09:06Z</time>
      </trkpt>
      <trkpt lat="49.07151" lon="0.78466">
        <ele>90.98</ele>
        <time>2020-06-14T07:09:08Z</time>
      </trkpt>
      <trkpt lat="49.07146" lon="0.78466">
        <ele>90.98</ele>
        <time>2020-06-14T07:09:09Z</time>
      </trkpt>
      <trkpt lat="49.07061" lon="0.78475">
        <ele>92.42</ele>
        <time>2020-06-14T07:09:26Z</time>
      </trkpt>
      <trkpt lat="49.06983" lon="0.78517">
        <ele>91.46</ele>
        <time>2020-06-14T07:09:42Z</time>
      </trkpt>
      <trkpt lat="49.06912" lon="0.78582">
        <ele>92.42</ele>
        <time>2020-06-14T07:09:58Z</time>
      </trkpt>
      <trkpt lat="49.06908" lon="0.78587">
        <ele>92.42</ele>
        <time>2020-06-14T07:09:59Z</time>
      </trkpt>
      <trkpt lat="49.06891" lon="0.78618">
        <ele>92.42</ele>
        <time>2020-06-14T07:10:04Z</time>
      </trkpt>
      <trkpt lat="49.06888" lon="0.78624">
        <ele>92.42</ele>
        <time>2020-06-14T07:10:05Z</time>
      </trkpt>
      <trkpt lat="49.06814" lon="0.78718">
        <ele>92.9</ele>
        <time>2020-06-14T07:10:24Z</time>
      </trkpt>
      <trkpt lat="49.06784" lon="0.78754">
        <ele>92.9</ele>
        <time>2020-06-14T07:10:31Z</time>
      </trkpt>
      <trkpt lat="49.0678" lon="0.78761">
        <ele>92.9</ele>
        <time>2020-06-14T07:10:32Z</time>
      </trkpt>
      <trkpt lat="49.06769" lon="0.78781">
        <ele>92.9</ele>
        <time>2020-06-14T07:10:35Z</time>
      </trkpt>
      <trkpt lat="49.06767" lon="0.78788">
        <ele>92.9</ele>
        <time>2020-06-14T07:10:36Z</time>
      </trkpt>
      <trkpt lat="49.06754" lon="0.78831">
        <ele>92.9</ele>
        <time>2020-06-14T07:10:42Z</time>
      </trkpt>
      <trkpt lat="49.06741" lon="0.78898">
        <ele>93.39</ele>
        <time>2020-06-14T07:10:51Z</time>
      </trkpt>
      <trkpt lat="49.06705" lon="0.79008">
        <ele>94.83</ele>
        <time>2020-06-14T07:11:08Z</time>
      </trkpt>
      <trkpt lat="49.06648" lon="0.79109">
        <ele>93.39</ele>
        <time>2020-06-14T07:11:26Z</time>
      </trkpt>
      <trkpt lat="49.06645" lon="0.79115">
        <ele>93.39</ele>
        <time>2020-06-14T07:11:27Z</time>
      </trkpt>
      <trkpt lat="49.0659" lon="0.79227">
        <ele>92.42</ele>
        <time>2020-06-14T07:11:45Z</time>
      </trkpt>
      <trkpt lat="49.06577" lon="0.79251">
        <ele>92.42</ele>
        <time>2020-06-14T07:11:49Z</time>
      </trkpt>
      <trkpt lat="49.06573" lon="0.79256">
        <ele>92.42</ele>
        <time>2020-06-14T07:11:50Z</time>
      </trkpt>
      <trkpt lat="49.06548" lon="0.79295">
        <ele>93.87</ele>
        <time>2020-06-14T07:11:57Z</time>
      </trkpt>
      <trkpt lat="49.06478" lon="0.79397">
        <ele>94.35</ele>
        <time>2020-06-14T07:12:16Z</time>
      </trkpt>
      <trkpt lat="49.06415" lon="0.79481">
        <ele>94.35</ele>
        <time>2020-06-14T07:12:31Z</time>
      </trkpt>
      <trkpt lat="49.0636" lon="0.79571">
        <ele>94.35</ele>
        <time>2020-06-14T07:12:46Z</time>
      </trkpt>
      <trkpt lat="49.06285" lon="0.79682">
        <ele>94.83</ele>
        <time>2020-06-14T07:13:06Z</time>
      </trkpt>
      <trkpt lat="49.0622" lon="0.79759">
        <ele>95.79</ele>
        <time>2020-06-14T07:13:23Z</time>
      </trkpt>
      <trkpt lat="49.06158" lon="0.79835">
        <ele>97.23</ele>
        <time>2020-06-14T07:13:40Z</time>
      </trkpt>
      <trkpt lat="49.06097" lon="0.79908">
        <ele>99.15</ele>
        <time>2020-06-14T07:13:57Z</time>
      </trkpt>
      <trkpt lat="49.06059" lon="0.79954">
        <ele>101.08</ele>
        <time>2020-06-14T07:14:08Z</time>
      </trkpt>
      <trkpt lat="49.06056" lon="0.79958">
        <ele>101.08</ele>
        <time>2020-06-14T07:14:09Z</time>
      </trkpt>
      <trkpt lat="49.06005" lon="0.80019">
        <ele>104.44</ele>
        <time>2020-06-14T07:14:24Z</time>
      </trkpt>
      <trkpt lat="49.05942" lon="0.80089">
        <ele>107.81</ele>
        <time>2020-06-14T07:14:43Z</time>
      </trkpt>
      <trkpt lat="49.05892" lon="0.80141">
        <ele>110.69</ele>
        <time>2020-06-14T07:14:58Z</time>
      </trkpt>
      <trkpt lat="49.05835" lon="0.80204">
        <ele>114.05</ele>
        <time>2020-06-14T07:15:16Z</time>
      </trkpt>
      <trkpt lat="49.05785" lon="0.80272">
        <ele>116.46</ele>
        <time>2020-06-14T07:15:33Z</time>
      </trkpt>
      <trkpt lat="49.05732" lon="0.80343">
        <ele>119.82</ele>
        <time>2020-06-14T07:15:51Z</time>
      </trkpt>
      <trkpt lat="49.05684" lon="0.80415">
        <ele>122.22</ele>
        <time>2020-06-14T07:16:08Z</time>
      </trkpt>
      <trkpt lat="49.05646" lon="0.80484">
        <ele>125.11</ele>
        <time>2020-06-14T07:16:23Z</time>
      </trkpt>
      <trkpt lat="49.05611" lon="0.80566">
        <ele>127.51</ele>
        <time>2020-06-14T07:16:39Z</time>
      </trkpt>
      <trkpt lat="49.05575" lon="0.80653">
        <ele>130.88</ele>
        <time>2020-06-14T07:16:56Z</time>
      </trkpt>
      <trkpt lat="49.05542" lon="0.80736">
        <ele>133.76</ele>
        <time>2020-06-14T07:17:13Z</time>
      </trkpt>
      <trkpt lat="49.05512" lon="0.80827">
        <ele>136.64</ele>
        <time>2020-06-14T07:17:30Z</time>
      </trkpt>
      <trkpt lat="49.0548" lon="0.80875">
        <ele>138.57</ele>
        <time>2020-06-14T07:17:42Z</time>
      </trkpt>
      <trkpt lat="49.05453" lon="0.80931">
        <ele>141.45</ele>
        <time>2020-06-14T07:17:54Z</time>
      </trkpt>
      <trkpt lat="49.0541" lon="0.80999">
        <ele>143.85</ele>
        <time>2020-06-14T07:18:10Z</time>
      </trkpt>
      <trkpt lat="49.05361" lon="0.81056">
        <ele>146.26</ele>
        <time>2020-06-14T07:18:26Z</time>
      </trkpt>
      <trkpt lat="49.0531" lon="0.81091">
        <ele>148.66</ele>
        <time>2020-06-14T07:18:40Z</time>
      </trkpt>
      <trkpt lat="49.05249" lon="0.81112">
        <ele>150.1</ele>
        <time>2020-06-14T07:18:56Z</time>
      </trkpt>
      <trkpt lat="49.0518" lon="0.81134">
        <ele>151.06</ele>
        <time>2020-06-14T07:19:13Z</time>
      </trkpt>
      <trkpt lat="49.0511" lon="0.81154">
        <ele>152.51</ele>
        <time>2020-06-14T07:19:30Z</time>
      </trkpt>
      <trkpt lat="49.05061" lon="0.81168">
        <ele>152.51</ele>
        <time>2020-06-14T07:19:42Z</time>
      </trkpt>
      <trkpt lat="49.05057" lon="0.81168">
        <ele>152.51</ele>
        <time>2020-06-14T07:19:43Z</time>
      </trkpt>
      <trkpt lat="49.05053" lon="0.81168">
        <ele>152.99</ele>
        <time>2020-06-14T07:19:44Z</time>
      </trkpt>
      <trkpt lat="49.04977" lon="0.81153">
        <ele>152.99</ele>
        <time>2020-06-14T07:20:01Z</time>
      </trkpt>
      <trkpt lat="49.04957" lon="0.81153">
        <ele>152.99</ele>
        <time>2020-06-14T07:20:05Z</time>
      </trkpt>
      <trkpt lat="49.04881" lon="0.81188">
        <ele>152.99</ele>
        <time>2020-06-14T07:20:21Z</time>
      </trkpt>
      <trkpt lat="49.04877" lon="0.81191">
        <ele>152.99</ele>
        <time>2020-06-14T07:20:22Z</time>
      </trkpt>
      <trkpt lat="49.04801" lon="0.81245">
        <ele>153.47</ele>
        <time>2020-06-14T07:20:39Z</time>
      </trkpt>
      <trkpt lat="49.04771" lon="0.8127">
        <ele>152.03</ele>
        <time>2020-06-14T07:20:46Z</time>
      </trkpt>
      <trkpt lat="49.04767" lon="0.81276">
        <ele>152.03</ele>
        <time>2020-06-14T07:20:47Z</time>
      </trkpt>
      <trkpt lat="49.04727" lon="0.81365">
        <ele>153.47</ele>
        <time>2020-06-14T07:21:02Z</time>
      </trkpt>
      <trkpt lat="49.04701" lon="0.81436">
        <ele>153.95</ele>
        <time>2020-06-14T07:21:13Z</time>
      </trkpt>
      <trkpt lat="49.04686" lon="0.81545">
        <ele>153.95</ele>
        <time>2020-06-14T07:21:28Z</time>
      </trkpt>
      <trkpt lat="49.0468" lon="0.81608">
        <ele>153.95</ele>
        <time>2020-06-14T07:21:37Z</time>
      </trkpt>
      <trkpt lat="49.04681" lon="0.81614">
        <ele>153.95</ele>
        <time>2020-06-14T07:21:38Z</time>
      </trkpt>
      <trkpt lat="49.04682" lon="0.8162">
        <ele>153.95</ele>
        <time>2020-06-14T07:21:39Z</time>
      </trkpt>
      <trkpt lat="49.04683" lon="0.81632">
        <ele>153.95</ele>
        <time>2020-06-14T07:21:41Z</time>
      </trkpt>
      <trkpt lat="49.04683" lon="0.81639">
        <ele>153.95</ele>
        <time>2020-06-14T07:21:42Z</time>
      </trkpt>
      <trkpt lat="49.04682" lon="0.81644">
        <ele>153.95</ele>
        <time>2020-06-14T07:21:43Z</time>
      </trkpt>
      <trkpt lat="49.0468" lon="0.81651">
        <ele>153.95</ele>
        <time>2020-06-14T07:21:44Z</time>
      </trkpt>
      <trkpt lat="49.04676" lon="0.81656">
        <ele>153.95</ele>
        <time>2020-06-14T07:21:45Z</time>
      </trkpt>
      <trkpt lat="49.04671" lon="0.81659">
        <ele>153.95</ele>
        <time>2020-06-14T07:21:46Z</time>
      </trkpt>
      <trkpt lat="49.04666" lon="0.81661">
        <ele>153.95</ele>
        <time>2020-06-14T07:21:47Z</time>
      </trkpt>
      <trkpt lat="49.04662" lon="0.81664">
        <ele>153.95</ele>
        <time>2020-06-14T07:21:48Z</time>
      </trkpt>
      <trkpt lat="49.04585" lon="0.81706">
        <ele>154.43</ele>
        <time>2020-06-14T07:22:05Z</time>
      </trkpt>
      <trkpt lat="49.04562" lon="0.81719">
        <ele>154.43</ele>
        <time>2020-06-14T07:22:10Z</time>
      </trkpt>
      <trkpt lat="49.04557" lon="0.8172">
        <ele>154.43</ele>
        <time>2020-06-14T07:22:11Z</time>
      </trkpt>
      <trkpt lat="49.04552" lon="0.81722">
        <ele>154.43</ele>
        <time>2020-06-14T07:22:12Z</time>
      </trkpt>
      <trkpt lat="49.04547" lon="0.81724">
        <ele>154.43</ele>
        <time>2020-06-14T07:22:13Z</time>
      </trkpt>
      <trkpt lat="49.04543" lon="0.81727">
        <ele>154.43</ele>
        <time>2020-06-14T07:22:14Z</time>
      </trkpt>
      <trkpt lat="49.04483" lon="0.81761">
        <ele>154.43</ele>
        <time>2020-06-14T07:22:26Z</time>
      </trkpt>
      <trkpt lat="49.0442" lon="0.81796">
        <ele>154.43</ele>
        <time>2020-06-14T07:22:39Z</time>
      </trkpt>
      <trkpt lat="49.04415" lon="0.81798">
        <ele>154.43</ele>
        <time>2020-06-14T07:22:40Z</time>
      </trkpt>
      <trkpt lat="49.0441" lon="0.81802">
        <ele>154.43</ele>
        <time>2020-06-14T07:22:41Z</time>
      </trkpt>
      <trkpt lat="49.04385" lon="0.81826">
        <ele>154.91</ele>
        <time>2020-06-14T07:22:47Z</time>
      </trkpt>
      <trkpt lat="49.04333" lon="0.81945">
        <ele>153.47</ele>
        <time>2020-06-14T07:23:05Z</time>
      </trkpt>
      <trkpt lat="49.04279" lon="0.82071">
        <ele>151.54</ele>
        <time>2020-06-14T07:23:22Z</time>
      </trkpt>
      <trkpt lat="49.0425" lon="0.82138">
        <ele>150.58</ele>
        <time>2020-06-14T07:23:31Z</time>
      </trkpt>
      <trkpt lat="49.04247" lon="0.82145">
        <ele>150.58</ele>
        <time>2020-06-14T07:23:32Z</time>
      </trkpt>
      <trkpt lat="49.04186" lon="0.82284">
        <ele>148.66</ele>
        <time>2020-06-14T07:23:50Z</time>
      </trkpt>
      <trkpt lat="49.0413" lon="0.82411">
        <ele>148.66</ele>
        <time>2020-06-14T07:24:07Z</time>
      </trkpt>
      <trkpt lat="49.04126" lon="0.82417">
        <ele>148.66</ele>
        <time>2020-06-14T07:24:08Z</time>
      </trkpt>
      <trkpt lat="49.04121" lon="0.82422">
        <ele>148.66</ele>
        <time>2020-06-14T07:24:09Z</time>
      </trkpt>
      <trkpt lat="49.04116" lon="0.82425">
        <ele>148.66</ele>
        <time>2020-06-14T07:24:10Z</time>
      </trkpt>
      <trkpt lat="49.0411" lon="0.82428">
        <ele>148.66</ele>
        <time>2020-06-14T07:24:11Z</time>
      </trkpt>
      <trkpt lat="49.04104" lon="0.82428">
        <ele>148.66</ele>
        <time>2020-06-14T07:24:12Z</time>
      </trkpt>
      <trkpt lat="49.04098" lon="0.82427">
        <ele>148.66</ele>
        <time>2020-06-14T07:24:13Z</time>
      </trkpt>
      <trkpt lat="49.04093" lon="0.82425">
        <ele>148.66</ele>
        <time>2020-06-14T07:24:14Z</time>
      </trkpt>
      <trkpt lat="49.04088" lon="0.82421">
        <ele>148.66</ele>
        <time>2020-06-14T07:24:15Z</time>
      </trkpt>
      <trkpt lat="49.04057" lon="0.82402">
        <ele>148.66</ele>
        <time>2020-06-14T07:24:21Z</time>
      </trkpt>
      <trkpt lat="49.04052" lon="0.82401">
        <ele>148.66</ele>
        <time>2020-06-14T07:24:22Z</time>
      </trkpt>
      <trkpt lat="49.04046" lon="0.82401">
        <ele>150.1</ele>
        <time>2020-06-14T07:24:23Z</time>
      </trkpt>
      <trkpt lat="49.04041" lon="0.82401">
        <ele>150.1</ele>
        <time>2020-06-14T07:24:24Z</time>
      </trkpt>
      <trkpt lat="49.04036" lon="0.82402">
        <ele>150.1</ele>
        <time>2020-06-14T07:24:25Z</time>
      </trkpt>
      <trkpt lat="49.03942" lon="0.82422">
        <ele>151.06</ele>
        <time>2020-06-14T07:24:43Z</time>
      </trkpt>
      <trkpt lat="49.03847" lon="0.82432">
        <ele>151.06</ele>
        <time>2020-06-14T07:25:00Z</time>
      </trkpt>
      <trkpt lat="49.03798" lon="0.82438">
        <ele>151.06</ele>
        <time>2020-06-14T07:25:09Z</time>
      </trkpt>
      <trkpt lat="49.03745" lon="0.8247">
        <ele>151.06</ele>
        <time>2020-06-14T07:25:20Z</time>
      </trkpt>
      <trkpt lat="49.03681" lon="0.82548">
        <ele>151.06</ele>
        <time>2020-06-14T07:25:35Z</time>
      </trkpt>
      <trkpt lat="49.03615" lon="0.82651">
        <ele>149.62</ele>
        <time>2020-06-14T07:25:52Z</time>
      </trkpt>
      <trkpt lat="49.03552" lon="0.8275">
        <ele>149.62</ele>
        <time>2020-06-14T07:26:08Z</time>
      </trkpt>
      <trkpt lat="49.03458" lon="0.82851">
        <ele>149.14</ele>
        <time>2020-06-14T07:26:29Z</time>
      </trkpt>
      <trkpt lat="49.03428" lon="0.82874">
        <ele>149.14</ele>
        <time>2020-06-14T07:26:35Z</time>
      </trkpt>
      <trkpt lat="49.03417" lon="0.82878">
        <ele>149.14</ele>
        <time>2020-06-14T07:26:37Z</time>
      </trkpt>
      <trkpt lat="49.03412" lon="0.82879">
        <ele>149.14</ele>
        <time>2020-06-14T07:26:38Z</time>
      </trkpt>
      <trkpt lat="49.03406" lon="0.8288">
        <ele>149.14</ele>
        <time>2020-06-14T07:26:39Z</time>
      </trkpt>
      <trkpt lat="49.0336" lon="0.82875">
        <ele>150.58</ele>
        <time>2020-06-14T07:26:48Z</time>
      </trkpt>
      <trkpt lat="49.0328" lon="0.82892">
        <ele>150.58</ele>
        <time>2020-06-14T07:27:04Z</time>
      </trkpt>
      <trkpt lat="49.03211" lon="0.82955">
        <ele>150.58</ele>
        <time>2020-06-14T07:27:19Z</time>
      </trkpt>
      <trkpt lat="49.03125" lon="0.82999">
        <ele>151.06</ele>
        <time>2020-06-14T07:27:36Z</time>
      </trkpt>
      <trkpt lat="49.03014" lon="0.83039">
        <ele>151.06</ele>
        <time>2020-06-14T07:27:56Z</time>
      </trkpt>
      <trkpt lat="49.0293" lon="0.83069">
        <ele>151.06</ele>
        <time>2020-06-14T07:28:12Z</time>
      </trkpt>
      <trkpt lat="49.02849" lon="0.83083">
        <ele>152.03</ele>
        <time>2020-06-14T07:28:27Z</time>
      </trkpt>
      <trkpt lat="49.02779" lon="0.83112">
        <ele>152.99</ele>
        <time>2020-06-14T07:28:41Z</time>
      </trkpt>
      <trkpt lat="49.02725" lon="0.8314">
        <ele>154.91</ele>
        <time>2020-06-14T07:28:53Z</time>
      </trkpt>
      <trkpt lat="49.02686" lon="0.83154">
        <ele>155.39</ele>
        <time>2020-06-14T07:29:01Z</time>
      </trkpt>
      <trkpt lat="49.02681" lon="0.83155">
        <ele>155.39</ele>
        <time>2020-06-14T07:29:02Z</time>
      </trkpt>
      <trkpt lat="49.02648" lon="0.83162">
        <ele>155.87</ele>
        <time>2020-06-14T07:29:09Z</time>
      </trkpt>
      <trkpt lat="49.02599" lon="0.83174">
        <ele>155.87</ele>
        <time>2020-06-14T07:29:18Z</time>
      </trkpt>
      <trkpt lat="49.02569" lon="0.8318">
        <ele>155.87</ele>
        <time>2020-06-14T07:29:23Z</time>
      </trkpt>
      <trkpt lat="49.02563" lon="0.83181">
        <ele>155.87</ele>
        <time>2020-06-14T07:29:24Z</time>
      </trkpt>
      <trkpt lat="49.02488" lon="0.83203">
        <ele>154.43</ele>
        <time>2020-06-14T07:29:37Z</time>
      </trkpt>
      <trkpt lat="49.024" lon="0.8326">
        <ele>155.87</ele>
        <time>2020-06-14T07:29:55Z</time>
      </trkpt>
      <trkpt lat="49.02362" lon="0.83285">
        <ele>154.43</ele>
        <time>2020-06-14T07:30:03Z</time>
      </trkpt>
      <trkpt lat="49.02294" lon="0.83324">
        <ele>155.87</ele>
        <time>2020-06-14T07:30:17Z</time>
      </trkpt>
      <trkpt lat="49.0228" lon="0.83335">
        <ele>154.43</ele>
        <time>2020-06-14T07:30:20Z</time>
      </trkpt>
      <trkpt lat="49.02211" lon="0.83391">
        <ele>153.47</ele>
        <time>2020-06-14T07:30:33Z</time>
      </trkpt>
      <trkpt lat="49.02142" lon="0.83444">
        <ele>152.99</ele>
        <time>2020-06-14T07:30:46Z</time>
      </trkpt>
      <trkpt lat="49.02083" lon="0.83485">
        <ele>152.03</ele>
        <time>2020-06-14T07:30:57Z</time>
      </trkpt>
      <trkpt lat="49.02013" lon="0.8353">
        <ele>152.03</ele>
        <time>2020-06-14T07:31:10Z</time>
      </trkpt>
      <trkpt lat="49.01941" lon="0.83579">
        <ele>151.06</ele>
        <time>2020-06-14T07:31:22Z</time>
      </trkpt>
      <trkpt lat="49.0193" lon="0.83591">
        <ele>151.06</ele>
        <time>2020-06-14T07:31:24Z</time>
      </trkpt>
      <trkpt lat="49.01859" lon="0.83657">
        <ele>148.66</ele>
        <time>2020-06-14T07:31:36Z</time>
      </trkpt>
      <trkpt lat="49.01819" lon="0.83673">
        <ele>149.62</ele>
        <time>2020-06-14T07:31:43Z</time>
      </trkpt>
      <trkpt lat="49.01814" lon="0.83673">
        <ele>149.62</ele>
        <time>2020-06-14T07:31:44Z</time>
      </trkpt>
      <trkpt lat="49.01809" lon="0.83671">
        <ele>149.62</ele>
        <time>2020-06-14T07:31:45Z</time>
      </trkpt>
      <trkpt lat="49.01804" lon="0.83667">
        <ele>149.62</ele>
        <time>2020-06-14T07:31:46Z</time>
      </trkpt>
      <trkpt lat="49.01799" lon="0.83662">
        <ele>149.62</ele>
        <time>2020-06-14T07:31:47Z</time>
      </trkpt>
      <trkpt lat="49.01796" lon="0.83656">
        <ele>149.62</ele>
        <time>2020-06-14T07:31:48Z</time>
      </trkpt>
      <trkpt lat="49.01792" lon="0.83649">
        <ele>149.62</ele>
        <time>2020-06-14T07:31:49Z</time>
      </trkpt>
      <trkpt lat="49.01789" lon="0.83642">
        <ele>150.1</ele>
        <time>2020-06-14T07:31:50Z</time>
      </trkpt>
      <trkpt lat="49.0175" lon="0.83555">
        <ele>148.66</ele>
        <time>2020-06-14T07:32:02Z</time>
      </trkpt>
      <trkpt lat="49.01746" lon="0.83548">
        <ele>148.18</ele>
        <time>2020-06-14T07:32:03Z</time>
      </trkpt>
      <trkpt lat="49.017" lon="0.83464">
        <ele>150.1</ele>
        <time>2020-06-14T07:32:17Z</time>
      </trkpt>
      <trkpt lat="49.01681" lon="0.8344">
        <ele>150.1</ele>
        <time>2020-06-14T07:32:24Z</time>
      </trkpt>
      <trkpt lat="49.01677" lon="0.83441">
        <ele>148.66</ele>
        <time>2020-06-14T07:32:25Z</time>
      </trkpt>
      <trkpt lat="49.01672" lon="0.83443">
        <ele>148.18</ele>
        <time>2020-06-14T07:32:26Z</time>
      </trkpt>
      <trkpt lat="49.01668" lon="0.83447">
        <ele>147.22</ele>
        <time>2020-06-14T07:32:27Z</time>
      </trkpt>
      <trkpt lat="49.01663" lon="0.83453">
        <ele>147.22</ele>
        <time>2020-06-14T07:32:28Z</time>
      </trkpt>
      <trkpt lat="49.01659" lon="0.8346">
        <ele>147.22</ele>
        <time>2020-06-14T07:32:29Z</time>
      </trkpt>
      <trkpt lat="49.01655" lon="0.83467">
        <ele>145.78</ele>
        <time>2020-06-14T07:32:30Z</time>
      </trkpt>
      <trkpt lat="49.01601" lon="0.83546">
        <ele>144.34</ele>
        <time>2020-06-14T07:32:44Z</time>
      </trkpt>
      <trkpt lat="49.0157" lon="0.83577">
        <ele>145.78</ele>
        <time>2020-06-14T07:32:52Z</time>
      </trkpt>
      <trkpt lat="49.01566" lon="0.83581">
        <ele>145.78</ele>
        <time>2020-06-14T07:32:53Z</time>
      </trkpt>
      <trkpt lat="49.01506" lon="0.83638">
        <ele>146.26</ele>
        <time>2020-06-14T07:33:09Z</time>
      </trkpt>
      <trkpt lat="49.01431" lon="0.83705">
        <ele>146.74</ele>
        <time>2020-06-14T07:33:28Z</time>
      </trkpt>
      <trkpt lat="49.01343" lon="0.83786">
        <ele>148.18</ele>
        <time>2020-06-14T07:33:48Z</time>
      </trkpt>
      <trkpt lat="49.01275" lon="0.83857">
        <ele>149.62</ele>
        <time>2020-06-14T07:34:04Z</time>
      </trkpt>
      <trkpt lat="49.01208" lon="0.83909">
        <ele>149.62</ele>
        <time>2020-06-14T07:34:18Z</time>
      </trkpt>
      <trkpt lat="49.011" lon="0.83959">
        <ele>150.1</ele>
        <time>2020-06-14T07:34:38Z</time>
      </trkpt>
      <trkpt lat="49.01017" lon="0.84042">
        <ele>150.58</ele>
        <time>2020-06-14T07:34:56Z</time>
      </trkpt>
      <trkpt lat="49.01006" lon="0.84058">
        <ele>150.58</ele>
        <time>2020-06-14T07:34:59Z</time>
      </trkpt>
      <trkpt lat="49.00959" lon="0.84164">
        <ele>151.06</ele>
        <time>2020-06-14T07:35:15Z</time>
      </trkpt>
      <trkpt lat="49.00899" lon="0.84228">
        <ele>151.54</ele>
        <time>2020-06-14T07:35:29Z</time>
      </trkpt>
      <trkpt lat="49.00813" lon="0.84282">
        <ele>151.54</ele>
        <time>2020-06-14T07:35:47Z</time>
      </trkpt>
      <trkpt lat="49.00708" lon="0.84282">
        <ele>152.51</ele>
        <time>2020-06-14T07:36:07Z</time>
      </trkpt>
      <trkpt lat="49.00619" lon="0.84281">
        <ele>152.51</ele>
        <time>2020-06-14T07:36:24Z</time>
      </trkpt>
      <trkpt lat="49.00614" lon="0.84281">
        <ele>152.51</ele>
        <time>2020-06-14T07:36:25Z</time>
      </trkpt>
      <trkpt lat="49.00604" lon="0.84282">
        <ele>152.51</ele>
        <time>2020-06-14T07:36:27Z</time>
      </trkpt>
      <trkpt lat="49.00599" lon="0.84283">
        <ele>152.51</ele>
        <time>2020-06-14T07:36:28Z</time>
      </trkpt>
      <trkpt lat="49.00594" lon="0.84287">
        <ele>152.51</ele>
        <time>2020-06-14T07:36:29Z</time>
      </trkpt>
      <trkpt lat="49.00591" lon="0.84293">
        <ele>152.51</ele>
        <time>2020-06-14T07:36:30Z</time>
      </trkpt>
      <trkpt lat="49.00588" lon="0.84299">
        <ele>152.51</ele>
        <time>2020-06-14T07:36:31Z</time>
      </trkpt>
      <trkpt lat="49.00587" lon="0.84307">
        <ele>152.51</ele>
        <time>2020-06-14T07:36:32Z</time>
      </trkpt>
      <trkpt lat="49.00586" lon="0.84316">
        <ele>152.51</ele>
        <time>2020-06-14T07:36:33Z</time>
      </trkpt>
      <trkpt lat="49.00586" lon="0.84324">
        <ele>152.51</ele>
        <time>2020-06-14T07:36:34Z</time>
      </trkpt>
      <trkpt lat="49.00586" lon="0.84333">
        <ele>152.51</ele>
        <time>2020-06-14T07:36:35Z</time>
      </trkpt>
      <trkpt lat="49.00587" lon="0.84382">
        <ele>152.51</ele>
        <time>2020-06-14T07:36:41Z</time>
      </trkpt>
      <trkpt lat="49.00585" lon="0.8439">
        <ele>152.51</ele>
        <time>2020-06-14T07:36:42Z</time>
      </trkpt>
      <trkpt lat="49.00583" lon="0.84399">
        <ele>152.51</ele>
        <time>2020-06-14T07:36:43Z</time>
      </trkpt>
      <trkpt lat="49.00581" lon="0.84407">
        <ele>152.51</ele>
        <time>2020-06-14T07:36:44Z</time>
      </trkpt>
      <trkpt lat="49.00577" lon="0.84414">
        <ele>152.51</ele>
        <time>2020-06-14T07:36:45Z</time>
      </trkpt>
      <trkpt lat="49.00573" lon="0.84421">
        <ele>152.51</ele>
        <time>2020-06-14T07:36:46Z</time>
      </trkpt>
      <trkpt lat="49.00569" lon="0.84428">
        <ele>152.51</ele>
        <time>2020-06-14T07:36:47Z</time>
      </trkpt>
      <trkpt lat="49.00564" lon="0.84434">
        <ele>152.51</ele>
        <time>2020-06-14T07:36:48Z</time>
      </trkpt>
      <trkpt lat="49.00494" lon="0.8451">
        <ele>151.54</ele>
        <time>2020-06-14T07:37:03Z</time>
      </trkpt>
      <trkpt lat="49.00491" lon="0.84516">
        <ele>151.54</ele>
        <time>2020-06-14T07:37:04Z</time>
      </trkpt>
      <trkpt lat="49.00488" lon="0.84522">
        <ele>151.54</ele>
        <time>2020-06-14T07:37:05Z</time>
      </trkpt>
      <trkpt lat="49.00484" lon="0.84534">
        <ele>152.51</ele>
        <time>2020-06-14T07:37:07Z</time>
      </trkpt>
      <trkpt lat="49.00482" lon="0.84541">
        <ele>152.51</ele>
        <time>2020-06-14T07:37:08Z</time>
      </trkpt>
      <trkpt lat="49.0048" lon="0.84548">
        <ele>152.99</ele>
        <time>2020-06-14T07:37:09Z</time>
      </trkpt>
      <trkpt lat="49.0048" lon="0.84555">
        <ele>152.99</ele>
        <time>2020-06-14T07:37:10Z</time>
      </trkpt>
      <trkpt lat="49.00479" lon="0.84563">
        <ele>152.99</ele>
        <time>2020-06-14T07:37:11Z</time>
      </trkpt>
      <trkpt lat="49.00479" lon="0.8457">
        <ele>152.99</ele>
        <time>2020-06-14T07:37:12Z</time>
      </trkpt>
      <trkpt lat="49.00476" lon="0.84663">
        <ele>153.47</ele>
        <time>2020-06-14T07:37:27Z</time>
      </trkpt>
      <trkpt lat="49.00469" lon="0.84668">
        <ele>153.47</ele>
        <time>2020-06-14T07:37:29Z</time>
      </trkpt>
      <trkpt lat="49.00465" lon="0.84669">
        <ele>153.47</ele>
        <time>2020-06-14T07:37:30Z</time>
      </trkpt>
      <trkpt lat="49.00411" lon="0.84666">
        <ele>153.47</ele>
        <time>2020-06-14T07:37:42Z</time>
      </trkpt>
      <trkpt lat="49.00334" lon="0.8469">
        <ele>154.91</ele>
        <time>2020-06-14T07:37:59Z</time>
      </trkpt>
      <trkpt lat="49.00258" lon="0.84694">
        <ele>155.39</ele>
        <time>2020-06-14T07:38:17Z</time>
      </trkpt>
      <trkpt lat="49.00169" lon="0.84685">
        <ele>155.39</ele>
        <time>2020-06-14T07:38:36Z</time>
      </trkpt>
      <trkpt lat="49.00071" lon="0.84658">
        <ele>155.39</ele>
        <time>2020-06-14T07:38:56Z</time>
      </trkpt>
      <trkpt lat="48.99957" lon="0.84628">
        <ele>155.39</ele>
        <time>2020-06-14T07:39:19Z</time>
      </trkpt>
      <trkpt lat="48.99898" lon="0.84582">
        <ele>155.39</ele>
        <time>2020-06-14T07:39:33Z</time>
      </trkpt>
      <trkpt lat="48.99822" lon="0.84528">
        <ele>155.39</ele>
        <time>2020-06-14T07:39:50Z</time>
      </trkpt>
      <trkpt lat="48.99737" lon="0.84495">
        <ele>156.35</ele>
        <time>2020-06-14T07:40:08Z</time>
      </trkpt>
      <trkpt lat="48.99636" lon="0.84439">
        <ele>156.83</ele>
        <time>2020-06-14T07:40:28Z</time>
      </trkpt>
      <trkpt lat="48.99558" lon="0.84392">
        <ele>155.87</ele>
        <time>2020-06-14T07:40:43Z</time>
      </trkpt>
      <trkpt lat="48.99553" lon="0.8439">
        <ele>155.87</ele>
        <time>2020-06-14T07:40:44Z</time>
      </trkpt>
      <trkpt lat="48.99459" lon="0.84351">
        <ele>155.39</ele>
        <time>2020-06-14T07:41:02Z</time>
      </trkpt>
      <trkpt lat="48.99448" lon="0.8435">
        <ele>155.39</ele>
        <time>2020-06-14T07:41:04Z</time>
      </trkpt>
      <trkpt lat="48.99443" lon="0.8435">
        <ele>155.39</ele>
        <time>2020-06-14T07:41:05Z</time>
      </trkpt>
      <trkpt lat="48.99437" lon="0.84351">
        <ele>155.39</ele>
        <time>2020-06-14T07:41:06Z</time>
      </trkpt>
      <trkpt lat="48.99432" lon="0.84353">
        <ele>155.39</ele>
        <time>2020-06-14T07:41:07Z</time>
      </trkpt>
      <trkpt lat="48.99426" lon="0.84356">
        <ele>155.39</ele>
        <time>2020-06-14T07:41:08Z</time>
      </trkpt>
      <trkpt lat="48.99338" lon="0.84372">
        <ele>155.39</ele>
        <time>2020-06-14T07:41:24Z</time>
      </trkpt>
      <trkpt lat="48.99247" lon="0.84347">
        <ele>155.39</ele>
        <time>2020-06-14T07:41:42Z</time>
      </trkpt>
      <trkpt lat="48.99242" lon="0.84349">
        <ele>155.39</ele>
        <time>2020-06-14T07:41:43Z</time>
      </trkpt>
      <trkpt lat="48.99237" lon="0.84352">
        <ele>155.39</ele>
        <time>2020-06-14T07:41:44Z</time>
      </trkpt>
      <trkpt lat="48.99232" lon="0.84356">
        <ele>155.39</ele>
        <time>2020-06-14T07:41:45Z</time>
      </trkpt>
      <trkpt lat="48.99228" lon="0.84361">
        <ele>156.35</ele>
        <time>2020-06-14T07:41:46Z</time>
      </trkpt>
      <trkpt lat="48.99225" lon="0.84365">
        <ele>156.35</ele>
        <time>2020-06-14T07:41:47Z</time>
      </trkpt>
      <trkpt lat="48.99221" lon="0.84368">
        <ele>156.35</ele>
        <time>2020-06-14T07:41:48Z</time>
      </trkpt>
      <trkpt lat="48.99217" lon="0.84371">
        <ele>156.83</ele>
        <time>2020-06-14T07:41:49Z</time>
      </trkpt>
      <trkpt lat="48.99213" lon="0.84372">
        <ele>156.83</ele>
        <time>2020-06-14T07:41:50Z</time>
      </trkpt>
      <trkpt lat="48.99208" lon="0.84374">
        <ele>156.83</ele>
        <time>2020-06-14T07:41:51Z</time>
      </trkpt>
      <trkpt lat="48.99129" lon="0.84391">
        <ele>156.83</ele>
        <time>2020-06-14T07:42:06Z</time>
      </trkpt>
      <trkpt lat="48.99123" lon="0.8439">
        <ele>155.39</ele>
        <time>2020-06-14T07:42:07Z</time>
      </trkpt>
      <trkpt lat="48.99117" lon="0.84389">
        <ele>155.39</ele>
        <time>2020-06-14T07:42:08Z</time>
      </trkpt>
      <trkpt lat="48.99112" lon="0.84386">
        <ele>154.91</ele>
        <time>2020-06-14T07:42:09Z</time>
      </trkpt>
      <trkpt lat="48.99106" lon="0.84383">
        <ele>154.91</ele>
        <time>2020-06-14T07:42:10Z</time>
      </trkpt>
      <trkpt lat="48.99101" lon="0.84378">
        <ele>154.43</ele>
        <time>2020-06-14T07:42:11Z</time>
      </trkpt>
      <trkpt lat="48.99096" lon="0.84372">
        <ele>154.43</ele>
        <time>2020-06-14T07:42:12Z</time>
      </trkpt>
      <trkpt lat="48.99092" lon="0.84365">
        <ele>154.43</ele>
        <time>2020-06-14T07:42:13Z</time>
      </trkpt>
      <trkpt lat="48.99087" lon="0.84358">
        <ele>154.43</ele>
        <time>2020-06-14T07:42:14Z</time>
      </trkpt>
      <trkpt lat="48.99012" lon="0.84223">
        <ele>153.47</ele>
        <time>2020-06-14T07:42:32Z</time>
      </trkpt>
      <trkpt lat="48.98934" lon="0.84092">
        <ele>152.99</ele>
        <time>2020-06-14T07:42:51Z</time>
      </trkpt>
      <trkpt lat="48.98848" lon="0.84006">
        <ele>152.99</ele>
        <time>2020-06-14T07:43:07Z</time>
      </trkpt>
      <trkpt lat="48.98727" lon="0.839">
        <ele>151.54</ele>
        <time>2020-06-14T07:43:28Z</time>
      </trkpt>
      <trkpt lat="48.98613" lon="0.83804">
        <ele>150.58</ele>
        <time>2020-06-14T07:43:47Z</time>
      </trkpt>
      <trkpt lat="48.98502" lon="0.83735">
        <ele>148.18</ele>
        <time>2020-06-14T07:44:04Z</time>
      </trkpt>
      <trkpt lat="48.98373" lon="0.83724">
        <ele>149.62</ele>
        <time>2020-06-14T07:44:24Z</time>
      </trkpt>
      <trkpt lat="48.98272" lon="0.83716">
        <ele>150.58</ele>
        <time>2020-06-14T07:44:41Z</time>
      </trkpt>
      <trkpt lat="48.98151" lon="0.83705">
        <ele>151.06</ele>
        <time>2020-06-14T07:45:02Z</time>
      </trkpt>
      <trkpt lat="48.98059" lon="0.83663">
        <ele>152.03</ele>
        <time>2020-06-14T07:45:19Z</time>
      </trkpt>
      <trkpt lat="48.98053" lon="0.83662">
        <ele>152.03</ele>
        <time>2020-06-14T07:45:20Z</time>
      </trkpt>
      <trkpt lat="48.98041" lon="0.83661">
        <ele>152.03</ele>
        <time>2020-06-14T07:45:22Z</time>
      </trkpt>
      <trkpt lat="48.98036" lon="0.83661">
        <ele>152.03</ele>
        <time>2020-06-14T07:45:23Z</time>
      </trkpt>
      <trkpt lat="48.9803" lon="0.83663">
        <ele>152.03</ele>
        <time>2020-06-14T07:45:24Z</time>
      </trkpt>
      <trkpt lat="48.98025" lon="0.83666">
        <ele>152.03</ele>
        <time>2020-06-14T07:45:25Z</time>
      </trkpt>
      <trkpt lat="48.98019" lon="0.83668">
        <ele>152.03</ele>
        <time>2020-06-14T07:45:26Z</time>
      </trkpt>
      <trkpt lat="48.97938" lon="0.83729">
        <ele>152.51</ele>
        <time>2020-06-14T07:45:42Z</time>
      </trkpt>
      <trkpt lat="48.97835" lon="0.83804">
        <ele>152.99</ele>
        <time>2020-06-14T07:46:02Z</time>
      </trkpt>
      <trkpt lat="48.9783" lon="0.83806">
        <ele>152.99</ele>
        <time>2020-06-14T07:46:03Z</time>
      </trkpt>
      <trkpt lat="48.97823" lon="0.83807">
        <ele>152.99</ele>
        <time>2020-06-14T07:46:04Z</time>
      </trkpt>
      <trkpt lat="48.97818" lon="0.83807">
        <ele>152.99</ele>
        <time>2020-06-14T07:46:05Z</time>
      </trkpt>
      <trkpt lat="48.97813" lon="0.83804">
        <ele>152.99</ele>
        <time>2020-06-14T07:46:06Z</time>
      </trkpt>
      <trkpt lat="48.97807" lon="0.83801">
        <ele>152.99</ele>
        <time>2020-06-14T07:46:07Z</time>
      </trkpt>
      <trkpt lat="48.97802" lon="0.83798">
        <ele>152.99</ele>
        <time>2020-06-14T07:46:08Z</time>
      </trkpt>
      <trkpt lat="48.97798" lon="0.83794">
        <ele>152.99</ele>
        <time>2020-06-14T07:46:09Z</time>
      </trkpt>
      <trkpt lat="48.97705" lon="0.83727">
        <ele>155.87</ele>
        <time>2020-06-14T07:46:28Z</time>
      </trkpt>
      <trkpt lat="48.976" lon="0.83673">
        <ele>156.35</ele>
        <time>2020-06-14T07:46:48Z</time>
      </trkpt>
      <trkpt lat="48.97497" lon="0.83629">
        <ele>156.35</ele>
        <time>2020-06-14T07:47:06Z</time>
      </trkpt>
      <trkpt lat="48.9742" lon="0.83621">
        <ele>155.39</ele>
        <time>2020-06-14T07:47:20Z</time>
      </trkpt>
      <trkpt lat="48.9733" lon="0.83668">
        <ele>152.99</ele>
        <time>2020-06-14T07:47:34Z</time>
      </trkpt>
      <trkpt lat="48.97283" lon="0.83695">
        <ele>150.1</ele>
        <time>2020-06-14T07:47:41Z</time>
      </trkpt>
      <trkpt lat="48.97188" lon="0.83727">
        <ele>150.58</ele>
        <time>2020-06-14T07:47:55Z</time>
      </trkpt>
      <trkpt lat="48.97156" lon="0.83715">
        <ele>151.54</ele>
        <time>2020-06-14T07:48:01Z</time>
      </trkpt>
      <trkpt lat="48.97151" lon="0.83711">
        <ele>152.03</ele>
        <time>2020-06-14T07:48:02Z</time>
      </trkpt>
      <trkpt lat="48.97146" lon="0.83707">
        <ele>152.03</ele>
        <time>2020-06-14T07:48:03Z</time>
      </trkpt>
      <trkpt lat="48.97077" lon="0.83608">
        <ele>153.47</ele>
        <time>2020-06-14T07:48:20Z</time>
      </trkpt>
      <trkpt lat="48.97" lon="0.83487">
        <ele>153.95</ele>
        <time>2020-06-14T07:48:39Z</time>
      </trkpt>
      <trkpt lat="48.96921" lon="0.83363">
        <ele>154.91</ele>
        <time>2020-06-14T07:49:01Z</time>
      </trkpt>
      <trkpt lat="48.96859" lon="0.83268">
        <ele>154.91</ele>
        <time>2020-06-14T07:49:18Z</time>
      </trkpt>
      <trkpt lat="48.96787" lon="0.83157">
        <ele>155.39</ele>
        <time>2020-06-14T07:49:38Z</time>
      </trkpt>
      <trkpt lat="48.96745" lon="0.83091">
        <ele>156.35</ele>
        <time>2020-06-14T07:49:54Z</time>
      </trkpt>
      <trkpt lat="48.96733" lon="0.83042">
        <ele>156.35</ele>
        <time>2020-06-14T07:50:03Z</time>
      </trkpt>
      <trkpt lat="48.96718" lon="0.82932">
        <ele>154.43</ele>
        <time>2020-06-14T07:50:17Z</time>
      </trkpt>
      <trkpt lat="48.96693" lon="0.82765">
        <ele>153.47</ele>
        <time>2020-06-14T07:50:36Z</time>
      </trkpt>
      <trkpt lat="48.96655" lon="0.82616">
        <ele>154.91</ele>
        <time>2020-06-14T07:50:55Z</time>
      </trkpt>
      <trkpt lat="48.96609" lon="0.8251">
        <ele>156.83</ele>
        <time>2020-06-14T07:51:12Z</time>
      </trkpt>
      <trkpt lat="48.96542" lon="0.82399">
        <ele>158.27</ele>
        <time>2020-06-14T07:51:32Z</time>
      </trkpt>
      <trkpt lat="48.9647" lon="0.82312">
        <ele>160.68</ele>
        <time>2020-06-14T07:51:50Z</time>
      </trkpt>
      <trkpt lat="48.96386" lon="0.82223">
        <ele>162.12</ele>
        <time>2020-06-14T07:52:10Z</time>
      </trkpt>
      <trkpt lat="48.96318" lon="0.82172">
        <ele>164.04</ele>
        <time>2020-06-14T07:52:26Z</time>
      </trkpt>
      <trkpt lat="48.96238" lon="0.82141">
        <ele>165.48</ele>
        <time>2020-06-14T07:52:43Z</time>
      </trkpt>
      <trkpt lat="48.9614" lon="0.82116">
        <ele>167.89</ele>
        <time>2020-06-14T07:53:04Z</time>
      </trkpt>
      <trkpt lat="48.96052" lon="0.82052">
        <ele>169.81</ele>
        <time>2020-06-14T07:53:24Z</time>
      </trkpt>
      <trkpt lat="48.95963" lon="0.81997">
        <ele>170.77</ele>
        <time>2020-06-14T07:53:44Z</time>
      </trkpt>
      <trkpt lat="48.95894" lon="0.81949">
        <ele>172.21</ele>
        <time>2020-06-14T07:54:00Z</time>
      </trkpt>
      <trkpt lat="48.95813" lon="0.81895">
        <ele>174.62</ele>
        <time>2020-06-14T07:54:19Z</time>
      </trkpt>
      <trkpt lat="48.95717" lon="0.81836">
        <ele>176.06</ele>
        <time>2020-06-14T07:54:40Z</time>
      </trkpt>
      <trkpt lat="48.95634" lon="0.81798">
        <ele>177.02</ele>
        <time>2020-06-14T07:54:58Z</time>
      </trkpt>
      <trkpt lat="48.95551" lon="0.81739">
        <ele>177.5</ele>
        <time>2020-06-14T07:55:16Z</time>
      </trkpt>
      <trkpt lat="48.95472" lon="0.81686">
        <ele>178.94</ele>
        <time>2020-06-14T07:55:34Z</time>
      </trkpt>
      <trkpt lat="48.9541" lon="0.81653">
        <ele>178.94</ele>
        <time>2020-06-14T07:55:47Z</time>
      </trkpt>
      <trkpt lat="48.95326" lon="0.81605">
        <ele>179.9</ele>
        <time>2020-06-14T07:56:05Z</time>
      </trkpt>
      <trkpt lat="48.9525" lon="0.81559">
        <ele>180.87</ele>
        <time>2020-06-14T07:56:22Z</time>
      </trkpt>
      <trkpt lat="48.95174" lon="0.81512">
        <ele>181.35</ele>
        <time>2020-06-14T07:56:39Z</time>
      </trkpt>
      <trkpt lat="48.95093" lon="0.81462">
        <ele>181.83</ele>
        <time>2020-06-14T07:56:58Z</time>
      </trkpt>
      <trkpt lat="48.95056" lon="0.81437">
        <ele>181.83</ele>
        <time>2020-06-14T07:57:11Z</time>
      </trkpt>
      <trkpt lat="48.95054" lon="0.81436">
        <ele>181.83</ele>
        <time>2020-06-14T07:57:23Z</time>
      </trkpt>
      <trkpt lat="48.95054" lon="0.81435">
        <ele>181.83</ele>
        <time>2020-06-14T07:57:45Z</time>
      </trkpt>
      <trkpt lat="48.95052" lon="0.81434">
        <ele>181.83</ele>
        <time>2020-06-14T07:57:47Z</time>
      </trkpt>
      <trkpt lat="48.9505" lon="0.81434">
        <ele>181.83</ele>
        <time>2020-06-14T07:57:48Z</time>
      </trkpt>
      <trkpt lat="48.95049" lon="0.81434">
        <ele>181.83</ele>
        <time>2020-06-14T07:57:49Z</time>
      </trkpt>
      <trkpt lat="48.95048" lon="0.81434">
        <ele>181.83</ele>
        <time>2020-06-14T07:57:50Z</time>
      </trkpt>
      <trkpt lat="48.95045" lon="0.81434">
        <ele>181.83</ele>
        <time>2020-06-14T07:57:51Z</time>
      </trkpt>
      <trkpt lat="48.95043" lon="0.81433">
        <ele>181.83</ele>
        <time>2020-06-14T07:57:52Z</time>
      </trkpt>
      <trkpt lat="48.9504" lon="0.81431">
        <ele>181.83</ele>
        <time>2020-06-14T07:57:53Z</time>
      </trkpt>
      <trkpt lat="48.95037" lon="0.81429">
        <ele>181.83</ele>
        <time>2020-06-14T07:57:54Z</time>
      </trkpt>
      <trkpt lat="48.95034" lon="0.81426">
        <ele>181.83</ele>
        <time>2020-06-14T07:57:55Z</time>
      </trkpt>
      <trkpt lat="48.95031" lon="0.81424">
        <ele>181.83</ele>
        <time>2020-06-14T07:57:56Z</time>
      </trkpt>
      <trkpt lat="48.95016" lon="0.81415">
        <ele>180.38</ele>
        <time>2020-06-14T07:58:00Z</time>
      </trkpt>
      <trkpt lat="48.95008" lon="0.81409">
        <ele>180.38</ele>
        <time>2020-06-14T07:58:02Z</time>
      </trkpt>
      <trkpt lat="48.95003" lon="0.81406">
        <ele>180.38</ele>
        <time>2020-06-14T07:58:03Z</time>
      </trkpt>
      <trkpt lat="48.94931" lon="0.81358">
        <ele>179.42</ele>
        <time>2020-06-14T07:58:19Z</time>
      </trkpt>
      <trkpt lat="48.94861" lon="0.81309">
        <ele>177.98</ele>
        <time>2020-06-14T07:58:34Z</time>
      </trkpt>
      <trkpt lat="48.94859" lon="0.81303">
        <ele>177.98</ele>
        <time>2020-06-14T07:58:35Z</time>
      </trkpt>
      <trkpt lat="48.94859" lon="0.81296">
        <ele>177.98</ele>
        <time>2020-06-14T07:58:36Z</time>
      </trkpt>
      <trkpt lat="48.94861" lon="0.81288">
        <ele>177.5</ele>
        <time>2020-06-14T07:58:37Z</time>
      </trkpt>
      <trkpt lat="48.94864" lon="0.81281">
        <ele>177.5</ele>
        <time>2020-06-14T07:58:38Z</time>
      </trkpt>
      <trkpt lat="48.94867" lon="0.81274">
        <ele>177.5</ele>
        <time>2020-06-14T07:58:39Z</time>
      </trkpt>
      <trkpt lat="48.94894" lon="0.81219">
        <ele>177.5</ele>
        <time>2020-06-14T07:58:47Z</time>
      </trkpt>
      <trkpt lat="48.94897" lon="0.81213">
        <ele>177.5</ele>
        <time>2020-06-14T07:58:48Z</time>
      </trkpt>
      <trkpt lat="48.94906" lon="0.81195">
        <ele>178.94</ele>
        <time>2020-06-14T07:58:51Z</time>
      </trkpt>
      <trkpt lat="48.94934" lon="0.81132">
        <ele>179.42</ele>
        <time>2020-06-14T07:59:01Z</time>
      </trkpt>
      <trkpt lat="48.94936" lon="0.81125">
        <ele>179.9</ele>
        <time>2020-06-14T07:59:02Z</time>
      </trkpt>
      <trkpt lat="48.94936" lon="0.81118">
        <ele>179.9</ele>
        <time>2020-06-14T07:59:03Z</time>
      </trkpt>
      <trkpt lat="48.94935" lon="0.81111">
        <ele>179.9</ele>
        <time>2020-06-14T07:59:04Z</time>
      </trkpt>
      <trkpt lat="48.94933" lon="0.81105">
        <ele>179.9</ele>
        <time>2020-06-14T07:59:05Z</time>
      </trkpt>
      <trkpt lat="48.9493" lon="0.81099">
        <ele>179.9</ele>
        <time>2020-06-14T07:59:06Z</time>
      </trkpt>
      <trkpt lat="48.94927" lon="0.81093">
        <ele>179.9</ele>
        <time>2020-06-14T07:59:07Z</time>
      </trkpt>
      <trkpt lat="48.94924" lon="0.81087">
        <ele>179.9</ele>
        <time>2020-06-14T07:59:08Z</time>
      </trkpt>
      <trkpt lat="48.94892" lon="0.8099">
        <ele>180.38</ele>
        <time>2020-06-14T07:59:22Z</time>
      </trkpt>
      <trkpt lat="48.94879" lon="0.80868">
        <ele>180.38</ele>
        <time>2020-06-14T07:59:38Z</time>
      </trkpt>
      <trkpt lat="48.94878" lon="0.80729">
        <ele>181.35</ele>
        <time>2020-06-14T07:59:56Z</time>
      </trkpt>
      <trkpt lat="48.9487" lon="0.80586">
        <ele>181.35</ele>
        <time>2020-06-14T08:00:14Z</time>
      </trkpt>
      <trkpt lat="48.94823" lon="0.80413">
        <ele>181.35</ele>
        <time>2020-06-14T08:00:36Z</time>
      </trkpt>
      <trkpt lat="48.94811" lon="0.80367">
        <ele>181.35</ele>
        <time>2020-06-14T08:00:42Z</time>
      </trkpt>
      <trkpt lat="48.94809" lon="0.80359">
        <ele>181.35</ele>
        <time>2020-06-14T08:00:43Z</time>
      </trkpt>
      <trkpt lat="48.94809" lon="0.8035">
        <ele>181.35</ele>
        <time>2020-06-14T08:00:44Z</time>
      </trkpt>
      <trkpt lat="48.94809" lon="0.80341">
        <ele>181.35</ele>
        <time>2020-06-14T08:00:45Z</time>
      </trkpt>
      <trkpt lat="48.94811" lon="0.80333">
        <ele>181.35</ele>
        <time>2020-06-14T08:00:46Z</time>
      </trkpt>
      <trkpt lat="48.94813" lon="0.80325">
        <ele>181.35</ele>
        <time>2020-06-14T08:00:47Z</time>
      </trkpt>
      <trkpt lat="48.94816" lon="0.80318">
        <ele>181.35</ele>
        <time>2020-06-14T08:00:48Z</time>
      </trkpt>
      <trkpt lat="48.94818" lon="0.8031">
        <ele>181.35</ele>
        <time>2020-06-14T08:00:49Z</time>
      </trkpt>
      <trkpt lat="48.9482" lon="0.80301">
        <ele>181.35</ele>
        <time>2020-06-14T08:00:50Z</time>
      </trkpt>
      <trkpt lat="48.9482" lon="0.80292">
        <ele>181.35</ele>
        <time>2020-06-14T08:00:51Z</time>
      </trkpt>
      <trkpt lat="48.9482" lon="0.80283">
        <ele>181.35</ele>
        <time>2020-06-14T08:00:52Z</time>
      </trkpt>
      <trkpt lat="48.94819" lon="0.80274">
        <ele>181.35</ele>
        <time>2020-06-14T08:00:53Z</time>
      </trkpt>
      <trkpt lat="48.94817" lon="0.80265">
        <ele>181.35</ele>
        <time>2020-06-14T08:00:54Z</time>
      </trkpt>
      <trkpt lat="48.94777" lon="0.80081">
        <ele>179.9</ele>
        <time>2020-06-14T08:01:16Z</time>
      </trkpt>
      <trkpt lat="48.94745" lon="0.79931">
        <ele>180.38</ele>
        <time>2020-06-14T08:01:35Z</time>
      </trkpt>
      <trkpt lat="48.94709" lon="0.79762">
        <ele>180.38</ele>
        <time>2020-06-14T08:01:57Z</time>
      </trkpt>
      <trkpt lat="48.94686" lon="0.79635">
        <ele>179.9</ele>
        <time>2020-06-14T08:02:13Z</time>
      </trkpt>
      <trkpt lat="48.94687" lon="0.79627">
        <ele>180.38</ele>
        <time>2020-06-14T08:02:14Z</time>
      </trkpt>
      <trkpt lat="48.94706" lon="0.79496">
        <ele>181.35</ele>
        <time>2020-06-14T08:02:30Z</time>
      </trkpt>
      <trkpt lat="48.94711" lon="0.79471">
        <ele>181.35</ele>
        <time>2020-06-14T08:02:33Z</time>
      </trkpt>
      <trkpt lat="48.94712" lon="0.79462">
        <ele>181.35</ele>
        <time>2020-06-14T08:02:34Z</time>
      </trkpt>
      <trkpt lat="48.94712" lon="0.79453">
        <ele>181.35</ele>
        <time>2020-06-14T08:02:35Z</time>
      </trkpt>
      <trkpt lat="48.94711" lon="0.79445">
        <ele>181.35</ele>
        <time>2020-06-14T08:02:36Z</time>
      </trkpt>
      <trkpt lat="48.94709" lon="0.79437">
        <ele>181.35</ele>
        <time>2020-06-14T08:02:37Z</time>
      </trkpt>
      <trkpt lat="48.94708" lon="0.79429">
        <ele>181.35</ele>
        <time>2020-06-14T08:02:38Z</time>
      </trkpt>
      <trkpt lat="48.94706" lon="0.79421">
        <ele>181.35</ele>
        <time>2020-06-14T08:02:39Z</time>
      </trkpt>
      <trkpt lat="48.94703" lon="0.79414">
        <ele>181.35</ele>
        <time>2020-06-14T08:02:40Z</time>
      </trkpt>
      <trkpt lat="48.94691" lon="0.79363">
        <ele>179.9</ele>
        <time>2020-06-14T08:02:47Z</time>
      </trkpt>
      <trkpt lat="48.9468" lon="0.79334">
        <ele>179.9</ele>
        <time>2020-06-14T08:02:53Z</time>
      </trkpt>
      <trkpt lat="48.94676" lon="0.79333">
        <ele>179.9</ele>
        <time>2020-06-14T08:02:54Z</time>
      </trkpt>
      <trkpt lat="48.94672" lon="0.79334">
        <ele>179.9</ele>
        <time>2020-06-14T08:02:55Z</time>
      </trkpt>
      <trkpt lat="48.94667" lon="0.79336">
        <ele>179.9</ele>
        <time>2020-06-14T08:02:56Z</time>
      </trkpt>
      <trkpt lat="48.94662" lon="0.79339">
        <ele>179.9</ele>
        <time>2020-06-14T08:02:57Z</time>
      </trkpt>
      <trkpt lat="48.946" lon="0.79381">
        <ele>179.9</ele>
        <time>2020-06-14T08:03:10Z</time>
      </trkpt>
      <trkpt lat="48.94595" lon="0.7938">
        <ele>179.9</ele>
        <time>2020-06-14T08:03:11Z</time>
      </trkpt>
      <trkpt lat="48.94591" lon="0.79376">
        <ele>179.9</ele>
        <time>2020-06-14T08:03:12Z</time>
      </trkpt>
      <trkpt lat="48.94588" lon="0.79369">
        <ele>179.9</ele>
        <time>2020-06-14T08:03:13Z</time>
      </trkpt>
      <trkpt lat="48.94586" lon="0.79362">
        <ele>179.9</ele>
        <time>2020-06-14T08:03:14Z</time>
      </trkpt>
      <trkpt lat="48.94584" lon="0.79355">
        <ele>179.9</ele>
        <time>2020-06-14T08:03:15Z</time>
      </trkpt>
      <trkpt lat="48.9455" lon="0.79211">
        <ele>179.9</ele>
        <time>2020-06-14T08:03:34Z</time>
      </trkpt>
      <trkpt lat="48.94516" lon="0.79069">
        <ele>179.9</ele>
        <time>2020-06-14T08:03:52Z</time>
      </trkpt>
      <trkpt lat="48.94483" lon="0.78949">
        <ele>179.9</ele>
        <time>2020-06-14T08:04:08Z</time>
      </trkpt>
      <trkpt lat="48.94482" lon="0.78943">
        <ele>179.9</ele>
        <time>2020-06-14T08:04:09Z</time>
      </trkpt>
      <trkpt lat="48.94481" lon="0.78936">
        <ele>179.9</ele>
        <time>2020-06-14T08:04:10Z</time>
      </trkpt>
      <trkpt lat="48.94483" lon="0.7893">
        <ele>179.9</ele>
        <time>2020-06-14T08:04:11Z</time>
      </trkpt>
      <trkpt lat="48.94486" lon="0.78924">
        <ele>179.9</ele>
        <time>2020-06-14T08:04:12Z</time>
      </trkpt>
      <trkpt lat="48.94491" lon="0.78919">
        <ele>179.9</ele>
        <time>2020-06-14T08:04:13Z</time>
      </trkpt>
      <trkpt lat="48.94496" lon="0.78914">
        <ele>179.9</ele>
        <time>2020-06-14T08:04:14Z</time>
      </trkpt>
      <trkpt lat="48.94552" lon="0.78853">
        <ele>179.42</ele>
        <time>2020-06-14T08:04:27Z</time>
      </trkpt>
      <trkpt lat="48.94595" lon="0.788">
        <ele>179.42</ele>
        <time>2020-06-14T08:04:36Z</time>
      </trkpt>
      <trkpt lat="48.94599" lon="0.78793">
        <ele>179.42</ele>
        <time>2020-06-14T08:04:37Z</time>
      </trkpt>
      <trkpt lat="48.94602" lon="0.78785">
        <ele>179.42</ele>
        <time>2020-06-14T08:04:38Z</time>
      </trkpt>
      <trkpt lat="48.94659" lon="0.78615">
        <ele>178.46</ele>
        <time>2020-06-14T08:04:58Z</time>
      </trkpt>
      <trkpt lat="48.94729" lon="0.78418">
        <ele>179.9</ele>
        <time>2020-06-14T08:05:21Z</time>
      </trkpt>
      <trkpt lat="48.94781" lon="0.78263">
        <ele>179.9</ele>
        <time>2020-06-14T08:05:39Z</time>
      </trkpt>
      <trkpt lat="48.9483" lon="0.78122">
        <ele>179.9</ele>
        <time>2020-06-14T08:05:57Z</time>
      </trkpt>
      <trkpt lat="48.94836" lon="0.78107">
        <ele>179.9</ele>
        <time>2020-06-14T08:05:59Z</time>
      </trkpt>
      <trkpt lat="48.94847" lon="0.78088">
        <ele>179.9</ele>
        <time>2020-06-14T08:06:02Z</time>
      </trkpt>
      <trkpt lat="48.94852" lon="0.78083">
        <ele>179.9</ele>
        <time>2020-06-14T08:06:03Z</time>
      </trkpt>
      <trkpt lat="48.94858" lon="0.78081">
        <ele>180.38</ele>
        <time>2020-06-14T08:06:04Z</time>
      </trkpt>
      <trkpt lat="48.94864" lon="0.7808">
        <ele>180.38</ele>
        <time>2020-06-14T08:06:05Z</time>
      </trkpt>
      <trkpt lat="48.94869" lon="0.78082">
        <ele>180.87</ele>
        <time>2020-06-14T08:06:06Z</time>
      </trkpt>
      <trkpt lat="48.94875" lon="0.78084">
        <ele>180.87</ele>
        <time>2020-06-14T08:06:07Z</time>
      </trkpt>
      <trkpt lat="48.94881" lon="0.78084">
        <ele>180.87</ele>
        <time>2020-06-14T08:06:08Z</time>
      </trkpt>
      <trkpt lat="48.94887" lon="0.78083">
        <ele>180.87</ele>
        <time>2020-06-14T08:06:09Z</time>
      </trkpt>
      <trkpt lat="48.94891" lon="0.78078">
        <ele>180.87</ele>
        <time>2020-06-14T08:06:10Z</time>
      </trkpt>
      <trkpt lat="48.94895" lon="0.78071">
        <ele>180.87</ele>
        <time>2020-06-14T08:06:11Z</time>
      </trkpt>
      <trkpt lat="48.94898" lon="0.78063">
        <ele>180.87</ele>
        <time>2020-06-14T08:06:12Z</time>
      </trkpt>
      <trkpt lat="48.949" lon="0.78054">
        <ele>180.87</ele>
        <time>2020-06-14T08:06:13Z</time>
      </trkpt>
      <trkpt lat="48.94942" lon="0.77901">
        <ele>181.35</ele>
        <time>2020-06-14T08:06:32Z</time>
      </trkpt>
      <trkpt lat="48.94947" lon="0.77861">
        <ele>181.83</ele>
        <time>2020-06-14T08:06:37Z</time>
      </trkpt>
      <trkpt lat="48.94949" lon="0.77853">
        <ele>181.83</ele>
        <time>2020-06-14T08:06:38Z</time>
      </trkpt>
      <trkpt lat="48.94951" lon="0.77845">
        <ele>181.83</ele>
        <time>2020-06-14T08:06:39Z</time>
      </trkpt>
      <trkpt lat="48.94955" lon="0.77839">
        <ele>181.83</ele>
        <time>2020-06-14T08:06:40Z</time>
      </trkpt>
      <trkpt lat="48.94958" lon="0.77832">
        <ele>181.83</ele>
        <time>2020-06-14T08:06:41Z</time>
      </trkpt>
      <trkpt lat="48.94962" lon="0.77826">
        <ele>181.83</ele>
        <time>2020-06-14T08:06:42Z</time>
      </trkpt>
      <trkpt lat="48.94966" lon="0.77821">
        <ele>181.83</ele>
        <time>2020-06-14T08:06:43Z</time>
      </trkpt>
      <trkpt lat="48.9497" lon="0.77814">
        <ele>181.83</ele>
        <time>2020-06-14T08:06:44Z</time>
      </trkpt>
      <trkpt lat="48.94974" lon="0.77807">
        <ele>181.83</ele>
        <time>2020-06-14T08:06:45Z</time>
      </trkpt>
      <trkpt lat="48.94977" lon="0.778">
        <ele>181.83</ele>
        <time>2020-06-14T08:06:46Z</time>
      </trkpt>
      <trkpt lat="48.9498" lon="0.77792">
        <ele>181.83</ele>
        <time>2020-06-14T08:06:47Z</time>
      </trkpt>
      <trkpt lat="48.95018" lon="0.77666">
        <ele>182.31</ele>
        <time>2020-06-14T08:07:04Z</time>
      </trkpt>
      <trkpt lat="48.95065" lon="0.77524">
        <ele>182.31</ele>
        <time>2020-06-14T08:07:23Z</time>
      </trkpt>
      <trkpt lat="48.95084" lon="0.77433">
        <ele>182.79</ele>
        <time>2020-06-14T08:07:34Z</time>
      </trkpt>
      <trkpt lat="48.95084" lon="0.77424">
        <ele>182.79</ele>
        <time>2020-06-14T08:07:35Z</time>
      </trkpt>
      <trkpt lat="48.95084" lon="0.77415">
        <ele>182.79</ele>
        <time>2020-06-14T08:07:36Z</time>
      </trkpt>
      <trkpt lat="48.95084" lon="0.77406">
        <ele>182.79</ele>
        <time>2020-06-14T08:07:37Z</time>
      </trkpt>
      <trkpt lat="48.95083" lon="0.77398">
        <ele>182.79</ele>
        <time>2020-06-14T08:07:38Z</time>
      </trkpt>
      <trkpt lat="48.95081" lon="0.77381">
        <ele>182.79</ele>
        <time>2020-06-14T08:07:40Z</time>
      </trkpt>
      <trkpt lat="48.95082" lon="0.77373">
        <ele>182.79</ele>
        <time>2020-06-14T08:07:41Z</time>
      </trkpt>
      <trkpt lat="48.95082" lon="0.77365">
        <ele>182.79</ele>
        <time>2020-06-14T08:07:42Z</time>
      </trkpt>
      <trkpt lat="48.95083" lon="0.77357">
        <ele>182.79</ele>
        <time>2020-06-14T08:07:43Z</time>
      </trkpt>
      <trkpt lat="48.95085" lon="0.7735">
        <ele>182.79</ele>
        <time>2020-06-14T08:07:44Z</time>
      </trkpt>
      <trkpt lat="48.95087" lon="0.77342">
        <ele>182.79</ele>
        <time>2020-06-14T08:07:45Z</time>
      </trkpt>
      <trkpt lat="48.9509" lon="0.77335">
        <ele>182.79</ele>
        <time>2020-06-14T08:07:46Z</time>
      </trkpt>
      <trkpt lat="48.95093" lon="0.77328">
        <ele>182.79</ele>
        <time>2020-06-14T08:07:47Z</time>
      </trkpt>
      <trkpt lat="48.95143" lon="0.77186">
        <ele>182.79</ele>
        <time>2020-06-14T08:08:05Z</time>
      </trkpt>
      <trkpt lat="48.95165" lon="0.77116">
        <ele>181.35</ele>
        <time>2020-06-14T08:08:13Z</time>
      </trkpt>
      <trkpt lat="48.952" lon="0.77006">
        <ele>181.35</ele>
        <time>2020-06-14T08:08:27Z</time>
      </trkpt>
      <trkpt lat="48.95206" lon="0.76991">
        <ele>181.35</ele>
        <time>2020-06-14T08:08:29Z</time>
      </trkpt>
      <trkpt lat="48.95209" lon="0.76984">
        <ele>180.87</ele>
        <time>2020-06-14T08:08:30Z</time>
      </trkpt>
      <trkpt lat="48.95213" lon="0.76978">
        <ele>180.87</ele>
        <time>2020-06-14T08:08:31Z</time>
      </trkpt>
      <trkpt lat="48.95218" lon="0.76973">
        <ele>180.87</ele>
        <time>2020-06-14T08:08:32Z</time>
      </trkpt>
      <trkpt lat="48.95223" lon="0.7697">
        <ele>180.87</ele>
        <time>2020-06-14T08:08:33Z</time>
      </trkpt>
      <trkpt lat="48.95228" lon="0.76967">
        <ele>180.87</ele>
        <time>2020-06-14T08:08:34Z</time>
      </trkpt>
      <trkpt lat="48.95239" lon="0.76961">
        <ele>180.87</ele>
        <time>2020-06-14T08:08:36Z</time>
      </trkpt>
      <trkpt lat="48.95244" lon="0.76956">
        <ele>180.87</ele>
        <time>2020-06-14T08:08:37Z</time>
      </trkpt>
      <trkpt lat="48.95249" lon="0.76951">
        <ele>180.87</ele>
        <time>2020-06-14T08:08:38Z</time>
      </trkpt>
      <trkpt lat="48.95253" lon="0.76944">
        <ele>180.87</ele>
        <time>2020-06-14T08:08:39Z</time>
      </trkpt>
      <trkpt lat="48.95257" lon="0.76938">
        <ele>179.9</ele>
        <time>2020-06-14T08:08:40Z</time>
      </trkpt>
      <trkpt lat="48.95318" lon="0.76826">
        <ele>178.94</ele>
        <time>2020-06-14T08:08:57Z</time>
      </trkpt>
      <trkpt lat="48.95344" lon="0.76776">
        <ele>177.98</ele>
        <time>2020-06-14T08:09:04Z</time>
      </trkpt>
      <trkpt lat="48.95399" lon="0.76677">
        <ele>175.1</ele>
        <time>2020-06-14T08:09:18Z</time>
      </trkpt>
      <trkpt lat="48.95457" lon="0.76576">
        <ele>173.17</ele>
        <time>2020-06-14T08:09:33Z</time>
      </trkpt>
      <trkpt lat="48.95484" lon="0.76534">
        <ele>173.66</ele>
        <time>2020-06-14T08:09:44Z</time>
      </trkpt>
      <trkpt lat="48.9551" lon="0.76502">
        <ele>169.81</ele>
        <time>2020-06-14T08:09:49Z</time>
      </trkpt>
      <trkpt lat="48.95521" lon="0.76484">
        <ele>168.37</ele>
        <time>2020-06-14T08:09:51Z</time>
      </trkpt>
      <trkpt lat="48.95526" lon="0.76474">
        <ele>167.41</ele>
        <time>2020-06-14T08:09:52Z</time>
      </trkpt>
      <trkpt lat="48.9553" lon="0.76465">
        <ele>167.41</ele>
        <time>2020-06-14T08:09:53Z</time>
      </trkpt>
      <trkpt lat="48.95544" lon="0.7642">
        <ele>165</ele>
        <time>2020-06-14T08:09:58Z</time>
      </trkpt>
      <trkpt lat="48.9555" lon="0.76393">
        <ele>163.56</ele>
        <time>2020-06-14T08:10:01Z</time>
      </trkpt>
      <trkpt lat="48.9555" lon="0.76383">
        <ele>162.6</ele>
        <time>2020-06-14T08:10:02Z</time>
      </trkpt>
      <trkpt lat="48.9555" lon="0.76373">
        <ele>161.64</ele>
        <time>2020-06-14T08:10:03Z</time>
      </trkpt>
      <trkpt lat="48.95548" lon="0.76363">
        <ele>161.64</ele>
        <time>2020-06-14T08:10:04Z</time>
      </trkpt>
      <trkpt lat="48.95546" lon="0.76352">
        <ele>161.16</ele>
        <time>2020-06-14T08:10:05Z</time>
      </trkpt>
      <trkpt lat="48.95537" lon="0.76314">
        <ele>157.79</ele>
        <time>2020-06-14T08:10:09Z</time>
      </trkpt>
      <trkpt lat="48.95532" lon="0.76272">
        <ele>153.95</ele>
        <time>2020-06-14T08:10:13Z</time>
      </trkpt>
      <trkpt lat="48.95532" lon="0.76262">
        <ele>152.99</ele>
        <time>2020-06-14T08:10:14Z</time>
      </trkpt>
      <trkpt lat="48.95535" lon="0.76219">
        <ele>149.62</ele>
        <time>2020-06-14T08:10:18Z</time>
      </trkpt>
      <trkpt lat="48.95542" lon="0.76175">
        <ele>146.26</ele>
        <time>2020-06-14T08:10:22Z</time>
      </trkpt>
      <trkpt lat="48.95547" lon="0.76139">
        <ele>142.89</ele>
        <time>2020-06-14T08:10:25Z</time>
      </trkpt>
      <trkpt lat="48.95551" lon="0.76107">
        <ele>141.45</ele>
        <time>2020-06-14T08:10:28Z</time>
      </trkpt>
      <trkpt lat="48.95553" lon="0.76078">
        <ele>139.05</ele>
        <time>2020-06-14T08:10:31Z</time>
      </trkpt>
      <trkpt lat="48.95552" lon="0.76069">
        <ele>138.09</ele>
        <time>2020-06-14T08:10:32Z</time>
      </trkpt>
      <trkpt lat="48.95549" lon="0.7606">
        <ele>137.61</ele>
        <time>2020-06-14T08:10:33Z</time>
      </trkpt>
      <trkpt lat="48.95545" lon="0.76054">
        <ele>136.64</ele>
        <time>2020-06-14T08:10:34Z</time>
      </trkpt>
      <trkpt lat="48.9554" lon="0.76049">
        <ele>136.64</ele>
        <time>2020-06-14T08:10:35Z</time>
      </trkpt>
      <trkpt lat="48.95536" lon="0.76045">
        <ele>136.16</ele>
        <time>2020-06-14T08:10:36Z</time>
      </trkpt>
      <trkpt lat="48.95532" lon="0.76041">
        <ele>136.16</ele>
        <time>2020-06-14T08:10:37Z</time>
      </trkpt>
      <trkpt lat="48.95529" lon="0.76036">
        <ele>136.16</ele>
        <time>2020-06-14T08:10:38Z</time>
      </trkpt>
      <trkpt lat="48.95529" lon="0.76028">
        <ele>135.2</ele>
        <time>2020-06-14T08:10:39Z</time>
      </trkpt>
      <trkpt lat="48.95531" lon="0.7602">
        <ele>135.2</ele>
        <time>2020-06-14T08:10:40Z</time>
      </trkpt>
      <trkpt lat="48.95532" lon="0.76016">
        <ele>135.68</ele>
        <time>2020-06-14T08:10:41Z</time>
      </trkpt>
      <trkpt lat="48.95535" lon="0.76009">
        <ele>135.68</ele>
        <time>2020-06-14T08:10:42Z</time>
      </trkpt>
      <trkpt lat="48.95567" lon="0.75945">
        <ele>135.2</ele>
        <time>2020-06-14T08:10:52Z</time>
      </trkpt>
      <trkpt lat="48.95569" lon="0.75938">
        <ele>136.16</ele>
        <time>2020-06-14T08:10:53Z</time>
      </trkpt>
      <trkpt lat="48.95571" lon="0.75931">
        <ele>136.64</ele>
        <time>2020-06-14T08:10:54Z</time>
      </trkpt>
      <trkpt lat="48.95572" lon="0.75924">
        <ele>136.64</ele>
        <time>2020-06-14T08:10:55Z</time>
      </trkpt>
      <trkpt lat="48.95573" lon="0.75916">
        <ele>136.64</ele>
        <time>2020-06-14T08:10:56Z</time>
      </trkpt>
      <trkpt lat="48.95573" lon="0.75909">
        <ele>136.64</ele>
        <time>2020-06-14T08:10:57Z</time>
      </trkpt>
      <trkpt lat="48.95576" lon="0.75793">
        <ele>137.61</ele>
        <time>2020-06-14T08:11:14Z</time>
      </trkpt>
      <trkpt lat="48.95582" lon="0.75653">
        <ele>136.64</ele>
        <time>2020-06-14T08:11:34Z</time>
      </trkpt>
      <trkpt lat="48.95583" lon="0.75627">
        <ele>136.64</ele>
        <time>2020-06-14T08:11:38Z</time>
      </trkpt>
      <trkpt lat="48.95582" lon="0.7562">
        <ele>136.64</ele>
        <time>2020-06-14T08:11:39Z</time>
      </trkpt>
      <trkpt lat="48.95581" lon="0.75614">
        <ele>136.64</ele>
        <time>2020-06-14T08:11:40Z</time>
      </trkpt>
      <trkpt lat="48.95579" lon="0.75609">
        <ele>136.64</ele>
        <time>2020-06-14T08:11:41Z</time>
      </trkpt>
      <trkpt lat="48.95577" lon="0.75603">
        <ele>137.61</ele>
        <time>2020-06-14T08:11:42Z</time>
      </trkpt>
      <trkpt lat="48.95575" lon="0.75598">
        <ele>137.61</ele>
        <time>2020-06-14T08:11:43Z</time>
      </trkpt>
      <trkpt lat="48.95573" lon="0.75593">
        <ele>138.09</ele>
        <time>2020-06-14T08:11:44Z</time>
      </trkpt>
      <trkpt lat="48.9555" lon="0.7555">
        <ele>141.45</ele>
        <time>2020-06-14T08:11:54Z</time>
      </trkpt>
      <trkpt lat="48.95546" lon="0.75532">
        <ele>142.41</ele>
        <time>2020-06-14T08:11:58Z</time>
      </trkpt>
      <trkpt lat="48.95547" lon="0.75528">
        <ele>142.89</ele>
        <time>2020-06-14T08:11:59Z</time>
      </trkpt>
      <trkpt lat="48.9555" lon="0.75525">
        <ele>143.37</ele>
        <time>2020-06-14T08:12:00Z</time>
      </trkpt>
      <trkpt lat="48.95552" lon="0.75526">
        <ele>143.37</ele>
        <time>2020-06-14T08:12:01Z</time>
      </trkpt>
      <trkpt lat="48.95555" lon="0.75527">
        <ele>144.34</ele>
        <time>2020-06-14T08:12:02Z</time>
      </trkpt>
      <trkpt lat="48.95557" lon="0.7553">
        <ele>144.34</ele>
        <time>2020-06-14T08:12:03Z</time>
      </trkpt>
      <trkpt lat="48.95559" lon="0.75533">
        <ele>144.82</ele>
        <time>2020-06-14T08:12:04Z</time>
      </trkpt>
      <trkpt lat="48.95562" lon="0.75537">
        <ele>144.82</ele>
        <time>2020-06-14T08:12:05Z</time>
      </trkpt>
      <trkpt lat="48.95602" lon="0.75571">
        <ele>147.22</ele>
        <time>2020-06-14T08:12:18Z</time>
      </trkpt>
      <trkpt lat="48.95637" lon="0.75542">
        <ele>148.66</ele>
        <time>2020-06-14T08:12:29Z</time>
      </trkpt>
      <trkpt lat="48.95665" lon="0.75486">
        <ele>152.51</ele>
        <time>2020-06-14T08:12:45Z</time>
      </trkpt>
      <trkpt lat="48.9568" lon="0.75439">
        <ele>155.87</ele>
        <time>2020-06-14T08:12:56Z</time>
      </trkpt>
      <trkpt lat="48.95702" lon="0.75357">
        <ele>158.75</ele>
        <time>2020-06-14T08:13:14Z</time>
      </trkpt>
      <trkpt lat="48.95721" lon="0.7528">
        <ele>159.72</ele>
        <time>2020-06-14T08:13:28Z</time>
      </trkpt>
      <trkpt lat="48.95746" lon="0.75207">
        <ele>160.2</ele>
        <time>2020-06-14T08:13:44Z</time>
      </trkpt>
      <trkpt lat="48.95758" lon="0.75137">
        <ele>161.16</ele>
        <time>2020-06-14T08:13:58Z</time>
      </trkpt>
      <trkpt lat="48.95784" lon="0.7509">
        <ele>163.56</ele>
        <time>2020-06-14T08:14:10Z</time>
      </trkpt>
      <trkpt lat="48.95793" lon="0.75029">
        <ele>165.96</ele>
        <time>2020-06-14T08:14:23Z</time>
      </trkpt>
      <trkpt lat="48.95806" lon="0.74941">
        <ele>167.41</ele>
        <time>2020-06-14T08:14:41Z</time>
      </trkpt>
      <trkpt lat="48.95819" lon="0.74854">
        <ele>170.29</ele>
        <time>2020-06-14T08:14:59Z</time>
      </trkpt>
      <trkpt lat="48.95834" lon="0.74748">
        <ele>172.69</ele>
        <time>2020-06-14T08:15:21Z</time>
      </trkpt>
      <trkpt lat="48.95859" lon="0.74663">
        <ele>174.14</ele>
        <time>2020-06-14T08:15:38Z</time>
      </trkpt>
      <trkpt lat="48.95901" lon="0.74582">
        <ele>174.62</ele>
        <time>2020-06-14T08:15:56Z</time>
      </trkpt>
      <trkpt lat="48.95952" lon="0.74535">
        <ele>176.06</ele>
        <time>2020-06-14T08:16:11Z</time>
      </trkpt>
      <trkpt lat="48.95957" lon="0.74519">
        <ele>176.06</ele>
        <time>2020-06-14T08:16:14Z</time>
      </trkpt>
      <trkpt lat="48.95957" lon="0.74513">
        <ele>176.06</ele>
        <time>2020-06-14T08:16:15Z</time>
      </trkpt>
      <trkpt lat="48.95957" lon="0.74506">
        <ele>176.06</ele>
        <time>2020-06-14T08:16:16Z</time>
      </trkpt>
      <trkpt lat="48.95955" lon="0.745">
        <ele>176.06</ele>
        <time>2020-06-14T08:16:17Z</time>
      </trkpt>
      <trkpt lat="48.95954" lon="0.74494">
        <ele>176.06</ele>
        <time>2020-06-14T08:16:18Z</time>
      </trkpt>
      <trkpt lat="48.95952" lon="0.74488">
        <ele>176.06</ele>
        <time>2020-06-14T08:16:19Z</time>
      </trkpt>
      <trkpt lat="48.9595" lon="0.74483">
        <ele>176.06</ele>
        <time>2020-06-14T08:16:20Z</time>
      </trkpt>
      <trkpt lat="48.95926" lon="0.74403">
        <ele>176.06</ele>
        <time>2020-06-14T08:16:34Z</time>
      </trkpt>
      <trkpt lat="48.95899" lon="0.74294">
        <ele>176.54</ele>
        <time>2020-06-14T08:16:50Z</time>
      </trkpt>
      <trkpt lat="48.95863" lon="0.74154">
        <ele>175.1</ele>
        <time>2020-06-14T08:17:09Z</time>
      </trkpt>
      <trkpt lat="48.95844" lon="0.74">
        <ele>173.66</ele>
        <time>2020-06-14T08:17:28Z</time>
      </trkpt>
      <trkpt lat="48.9585" lon="0.73921">
        <ele>170.77</ele>
        <time>2020-06-14T08:17:36Z</time>
      </trkpt>
      <trkpt lat="48.95857" lon="0.73848">
        <ele>166.45</ele>
        <time>2020-06-14T08:17:42Z</time>
      </trkpt>
      <trkpt lat="48.95872" lon="0.7374">
        <ele>164.04</ele>
        <time>2020-06-14T08:17:51Z</time>
      </trkpt>
      <trkpt lat="48.95872" lon="0.73729">
        <ele>164.04</ele>
        <time>2020-06-14T08:17:52Z</time>
      </trkpt>
      <trkpt lat="48.9587" lon="0.73718">
        <ele>164.04</ele>
        <time>2020-06-14T08:17:53Z</time>
      </trkpt>
      <trkpt lat="48.95866" lon="0.73709">
        <ele>164.04</ele>
        <time>2020-06-14T08:17:54Z</time>
      </trkpt>
      <trkpt lat="48.95862" lon="0.73701">
        <ele>164.04</ele>
        <time>2020-06-14T08:17:55Z</time>
      </trkpt>
      <trkpt lat="48.95857" lon="0.73695">
        <ele>164.04</ele>
        <time>2020-06-14T08:17:56Z</time>
      </trkpt>
      <trkpt lat="48.95852" lon="0.73688">
        <ele>164.04</ele>
        <time>2020-06-14T08:17:57Z</time>
      </trkpt>
      <trkpt lat="48.95839" lon="0.73669">
        <ele>165.48</ele>
        <time>2020-06-14T08:18:00Z</time>
      </trkpt>
      <trkpt lat="48.95814" lon="0.73634">
        <ele>168.85</ele>
        <time>2020-06-14T08:18:06Z</time>
      </trkpt>
      <trkpt lat="48.95749" lon="0.73556">
        <ele>170.29</ele>
        <time>2020-06-14T08:18:22Z</time>
      </trkpt>
      <trkpt lat="48.95678" lon="0.73475">
        <ele>171.25</ele>
        <time>2020-06-14T08:18:40Z</time>
      </trkpt>
      <trkpt lat="48.95633" lon="0.73401">
        <ele>172.21</ele>
        <time>2020-06-14T08:18:55Z</time>
      </trkpt>
      <trkpt lat="48.95597" lon="0.73339">
        <ele>173.17</ele>
        <time>2020-06-14T08:19:10Z</time>
      </trkpt>
      <trkpt lat="48.95597" lon="0.73334">
        <ele>173.17</ele>
        <time>2020-06-14T08:19:11Z</time>
      </trkpt>
      <trkpt lat="48.956" lon="0.73329">
        <ele>173.66</ele>
        <time>2020-06-14T08:19:12Z</time>
      </trkpt>
      <trkpt lat="48.95603" lon="0.73328">
        <ele>173.66</ele>
        <time>2020-06-14T08:19:13Z</time>
      </trkpt>
      <trkpt lat="48.95607" lon="0.73327">
        <ele>173.66</ele>
        <time>2020-06-14T08:19:14Z</time>
      </trkpt>
      <trkpt lat="48.95611" lon="0.73326">
        <ele>173.66</ele>
        <time>2020-06-14T08:19:15Z</time>
      </trkpt>
      <trkpt lat="48.95627" lon="0.73322">
        <ele>173.66</ele>
        <time>2020-06-14T08:19:19Z</time>
      </trkpt>
      <trkpt lat="48.95656" lon="0.73311">
        <ele>173.66</ele>
        <time>2020-06-14T08:19:26Z</time>
      </trkpt>
      <trkpt lat="48.95736" lon="0.73295">
        <ele>174.14</ele>
        <time>2020-06-14T08:19:42Z</time>
      </trkpt>
      <trkpt lat="48.95831" lon="0.73274">
        <ele>174.62</ele>
        <time>2020-06-14T08:20:02Z</time>
      </trkpt>
      <trkpt lat="48.95913" lon="0.73279">
        <ele>174.14</ele>
        <time>2020-06-14T08:20:17Z</time>
      </trkpt>
      <trkpt lat="48.95919" lon="0.7328">
        <ele>174.14</ele>
        <time>2020-06-14T08:20:18Z</time>
      </trkpt>
      <trkpt lat="48.96017" lon="0.73271">
        <ele>172.69</ele>
        <time>2020-06-14T08:20:34Z</time>
      </trkpt>
      <trkpt lat="48.96126" lon="0.73234">
        <ele>173.66</ele>
        <time>2020-06-14T08:20:53Z</time>
      </trkpt>
      <trkpt lat="48.96232" lon="0.73191">
        <ele>175.58</ele>
        <time>2020-06-14T08:21:12Z</time>
      </trkpt>
      <trkpt lat="48.96321" lon="0.73132">
        <ele>177.02</ele>
        <time>2020-06-14T08:21:29Z</time>
      </trkpt>
      <trkpt lat="48.96343" lon="0.7312">
        <ele>177.02</ele>
        <time>2020-06-14T08:21:33Z</time>
      </trkpt>
      <trkpt lat="48.9635" lon="0.73119">
        <ele>177.02</ele>
        <time>2020-06-14T08:21:34Z</time>
      </trkpt>
      <trkpt lat="48.96356" lon="0.73119">
        <ele>177.02</ele>
        <time>2020-06-14T08:21:35Z</time>
      </trkpt>
      <trkpt lat="48.96362" lon="0.73119">
        <ele>177.02</ele>
        <time>2020-06-14T08:21:36Z</time>
      </trkpt>
      <trkpt lat="48.96368" lon="0.73121">
        <ele>177.02</ele>
        <time>2020-06-14T08:21:37Z</time>
      </trkpt>
      <trkpt lat="48.96374" lon="0.73123">
        <ele>177.02</ele>
        <time>2020-06-14T08:21:38Z</time>
      </trkpt>
      <trkpt lat="48.9638" lon="0.73125">
        <ele>177.02</ele>
        <time>2020-06-14T08:21:39Z</time>
      </trkpt>
      <trkpt lat="48.96478" lon="0.73174">
        <ele>177.02</ele>
        <time>2020-06-14T08:21:56Z</time>
      </trkpt>
      <trkpt lat="48.96585" lon="0.73214">
        <ele>177.5</ele>
        <time>2020-06-14T08:22:14Z</time>
      </trkpt>
      <trkpt lat="48.96668" lon="0.73195">
        <ele>178.46</ele>
        <time>2020-06-14T08:22:29Z</time>
      </trkpt>
      <trkpt lat="48.96711" lon="0.73186">
        <ele>178.94</ele>
        <time>2020-06-14T08:22:39Z</time>
      </trkpt>
      <trkpt lat="48.96779" lon="0.73185">
        <ele>178.94</ele>
        <time>2020-06-14T08:22:52Z</time>
      </trkpt>
      <trkpt lat="48.96875" lon="0.73204">
        <ele>178.94</ele>
        <time>2020-06-14T08:23:09Z</time>
      </trkpt>
      <trkpt lat="48.9695" lon="0.73201">
        <ele>177.98</ele>
        <time>2020-06-14T08:23:22Z</time>
      </trkpt>
      <trkpt lat="48.9706" lon="0.73149">
        <ele>176.54</ele>
        <time>2020-06-14T08:23:40Z</time>
      </trkpt>
      <trkpt lat="48.97179" lon="0.73074">
        <ele>175.58</ele>
        <time>2020-06-14T08:23:59Z</time>
      </trkpt>
      <trkpt lat="48.97282" lon="0.73047">
        <ele>175.1</ele>
        <time>2020-06-14T08:24:15Z</time>
      </trkpt>
      <trkpt lat="48.97295" lon="0.73044">
        <ele>175.1</ele>
        <time>2020-06-14T08:24:17Z</time>
      </trkpt>
      <trkpt lat="48.97301" lon="0.73044">
        <ele>175.1</ele>
        <time>2020-06-14T08:24:18Z</time>
      </trkpt>
      <trkpt lat="48.97308" lon="0.73046">
        <ele>175.1</ele>
        <time>2020-06-14T08:24:19Z</time>
      </trkpt>
      <trkpt lat="48.97314" lon="0.7305">
        <ele>175.1</ele>
        <time>2020-06-14T08:24:20Z</time>
      </trkpt>
      <trkpt lat="48.97319" lon="0.73056">
        <ele>175.1</ele>
        <time>2020-06-14T08:24:21Z</time>
      </trkpt>
      <trkpt lat="48.97324" lon="0.73062">
        <ele>174.62</ele>
        <time>2020-06-14T08:24:22Z</time>
      </trkpt>
      <trkpt lat="48.97329" lon="0.73069">
        <ele>174.62</ele>
        <time>2020-06-14T08:24:23Z</time>
      </trkpt>
      <trkpt lat="48.97397" lon="0.73115">
        <ele>173.66</ele>
        <time>2020-06-14T08:24:34Z</time>
      </trkpt>
      <trkpt lat="48.97503" lon="0.73117">
        <ele>173.66</ele>
        <time>2020-06-14T08:24:50Z</time>
      </trkpt>
      <trkpt lat="48.97613" lon="0.73147">
        <ele>173.17</ele>
        <time>2020-06-14T08:25:07Z</time>
      </trkpt>
      <trkpt lat="48.97619" lon="0.73147">
        <ele>172.69</ele>
        <time>2020-06-14T08:25:08Z</time>
      </trkpt>
      <trkpt lat="48.9763" lon="0.73145">
        <ele>172.69</ele>
        <time>2020-06-14T08:25:10Z</time>
      </trkpt>
      <trkpt lat="48.97636" lon="0.73144">
        <ele>172.69</ele>
        <time>2020-06-14T08:25:11Z</time>
      </trkpt>
      <trkpt lat="48.97673" lon="0.7313">
        <ele>172.21</ele>
        <time>2020-06-14T08:25:17Z</time>
      </trkpt>
      <trkpt lat="48.97679" lon="0.73129">
        <ele>172.21</ele>
        <time>2020-06-14T08:25:18Z</time>
      </trkpt>
      <trkpt lat="48.97745" lon="0.73108">
        <ele>172.21</ele>
        <time>2020-06-14T08:25:31Z</time>
      </trkpt>
      <trkpt lat="48.97747" lon="0.73103">
        <ele>172.21</ele>
        <time>2020-06-14T08:25:32Z</time>
      </trkpt>
      <trkpt lat="48.97747" lon="0.73096">
        <ele>172.21</ele>
        <time>2020-06-14T08:25:33Z</time>
      </trkpt>
      <trkpt lat="48.97746" lon="0.73091">
        <ele>172.21</ele>
        <time>2020-06-14T08:25:34Z</time>
      </trkpt>
      <trkpt lat="48.97744" lon="0.73084">
        <ele>172.21</ele>
        <time>2020-06-14T08:25:35Z</time>
      </trkpt>
      <trkpt lat="48.97739" lon="0.73057">
        <ele>172.21</ele>
        <time>2020-06-14T08:25:39Z</time>
      </trkpt>
      <trkpt lat="48.97738" lon="0.72995">
        <ele>172.21</ele>
        <time>2020-06-14T08:25:49Z</time>
      </trkpt>
      <trkpt lat="48.9774" lon="0.72991">
        <ele>172.21</ele>
        <time>2020-06-14T08:25:50Z</time>
      </trkpt>
      <trkpt lat="48.97743" lon="0.72988">
        <ele>172.21</ele>
        <time>2020-06-14T08:25:51Z</time>
      </trkpt>
      <trkpt lat="48.97754" lon="0.72978">
        <ele>172.21</ele>
        <time>2020-06-14T08:25:54Z</time>
      </trkpt>
      <trkpt lat="48.97763" lon="0.72973">
        <ele>172.21</ele>
        <time>2020-06-14T08:25:56Z</time>
      </trkpt>
      <trkpt lat="48.97767" lon="0.72972">
        <ele>172.21</ele>
        <time>2020-06-14T08:25:57Z</time>
      </trkpt>
      <trkpt lat="48.97772" lon="0.72972">
        <ele>172.21</ele>
        <time>2020-06-14T08:25:58Z</time>
      </trkpt>
      <trkpt lat="48.97776" lon="0.72972">
        <ele>172.21</ele>
        <time>2020-06-14T08:25:59Z</time>
      </trkpt>
      <trkpt lat="48.97781" lon="0.72974">
        <ele>172.21</ele>
        <time>2020-06-14T08:26:00Z</time>
      </trkpt>
      <trkpt lat="48.97786" lon="0.72976">
        <ele>171.73</ele>
        <time>2020-06-14T08:26:01Z</time>
      </trkpt>
      <trkpt lat="48.97791" lon="0.72978">
        <ele>171.73</ele>
        <time>2020-06-14T08:26:02Z</time>
      </trkpt>
      <trkpt lat="48.97815" lon="0.72985">
        <ele>171.73</ele>
        <time>2020-06-14T08:26:07Z</time>
      </trkpt>
      <trkpt lat="48.97847" lon="0.72986">
        <ele>170.77</ele>
        <time>2020-06-14T08:26:13Z</time>
      </trkpt>
      <trkpt lat="48.97892" lon="0.72981">
        <ele>170.77</ele>
        <time>2020-06-14T08:26:22Z</time>
      </trkpt>
      <trkpt lat="48.97959" lon="0.73027">
        <ele>170.29</ele>
        <time>2020-06-14T08:26:36Z</time>
      </trkpt>
      <trkpt lat="48.97998" lon="0.73072">
        <ele>170.29</ele>
        <time>2020-06-14T08:26:45Z</time>
      </trkpt>
      <trkpt lat="48.98004" lon="0.73085">
        <ele>170.29</ele>
        <time>2020-06-14T08:26:47Z</time>
      </trkpt>
      <trkpt lat="48.98007" lon="0.73092">
        <ele>170.29</ele>
        <time>2020-06-14T08:26:48Z</time>
      </trkpt>
      <trkpt lat="48.9801" lon="0.73099">
        <ele>170.29</ele>
        <time>2020-06-14T08:26:49Z</time>
      </trkpt>
      <trkpt lat="48.98015" lon="0.73112">
        <ele>170.29</ele>
        <time>2020-06-14T08:26:51Z</time>
      </trkpt>
      <trkpt lat="48.98018" lon="0.73118">
        <ele>170.29</ele>
        <time>2020-06-14T08:26:52Z</time>
      </trkpt>
      <trkpt lat="48.98021" lon="0.73123">
        <ele>170.29</ele>
        <time>2020-06-14T08:26:53Z</time>
      </trkpt>
      <trkpt lat="48.98024" lon="0.73127">
        <ele>170.29</ele>
        <time>2020-06-14T08:26:54Z</time>
      </trkpt>
      <trkpt lat="48.98029" lon="0.7313">
        <ele>170.29</ele>
        <time>2020-06-14T08:26:55Z</time>
      </trkpt>
      <trkpt lat="48.98033" lon="0.73133">
        <ele>170.29</ele>
        <time>2020-06-14T08:26:56Z</time>
      </trkpt>
      <trkpt lat="48.98038" lon="0.73135">
        <ele>170.29</ele>
        <time>2020-06-14T08:26:57Z</time>
      </trkpt>
      <trkpt lat="48.98043" lon="0.73136">
        <ele>170.29</ele>
        <time>2020-06-14T08:26:58Z</time>
      </trkpt>
      <trkpt lat="48.98048" lon="0.73135">
        <ele>170.29</ele>
        <time>2020-06-14T08:26:59Z</time>
      </trkpt>
      <trkpt lat="48.98053" lon="0.73135">
        <ele>170.29</ele>
        <time>2020-06-14T08:27:00Z</time>
      </trkpt>
      <trkpt lat="48.98139" lon="0.73124">
        <ele>170.29</ele>
        <time>2020-06-14T08:27:16Z</time>
      </trkpt>
      <trkpt lat="48.98204" lon="0.73116">
        <ele>169.81</ele>
        <time>2020-06-14T08:27:27Z</time>
      </trkpt>
      <trkpt lat="48.9829" lon="0.73086">
        <ele>169.33</ele>
        <time>2020-06-14T08:27:42Z</time>
      </trkpt>
      <trkpt lat="48.98386" lon="0.73014">
        <ele>169.33</ele>
        <time>2020-06-14T08:28:00Z</time>
      </trkpt>
      <trkpt lat="48.98492" lon="0.7295">
        <ele>168.85</ele>
        <time>2020-06-14T08:28:19Z</time>
      </trkpt>
      <trkpt lat="48.98573" lon="0.72939">
        <ele>168.37</ele>
        <time>2020-06-14T08:28:33Z</time>
      </trkpt>
      <trkpt lat="48.98622" lon="0.7294">
        <ele>168.37</ele>
        <time>2020-06-14T08:28:41Z</time>
      </trkpt>
      <trkpt lat="48.98628" lon="0.72943">
        <ele>168.37</ele>
        <time>2020-06-14T08:28:42Z</time>
      </trkpt>
      <trkpt lat="48.98671" lon="0.7297">
        <ele>169.81</ele>
        <time>2020-06-14T08:28:50Z</time>
      </trkpt>
      <trkpt lat="48.98741" lon="0.73012">
        <ele>170.29</ele>
        <time>2020-06-14T08:29:05Z</time>
      </trkpt>
      <trkpt lat="48.98747" lon="0.73014">
        <ele>170.29</ele>
        <time>2020-06-14T08:29:06Z</time>
      </trkpt>
      <trkpt lat="48.98753" lon="0.73014">
        <ele>170.29</ele>
        <time>2020-06-14T08:29:07Z</time>
      </trkpt>
      <trkpt lat="48.98758" lon="0.73014">
        <ele>170.29</ele>
        <time>2020-06-14T08:29:08Z</time>
      </trkpt>
      <trkpt lat="48.98763" lon="0.73012">
        <ele>170.29</ele>
        <time>2020-06-14T08:29:09Z</time>
      </trkpt>
      <trkpt lat="48.98769" lon="0.7301">
        <ele>170.29</ele>
        <time>2020-06-14T08:29:10Z</time>
      </trkpt>
      <trkpt lat="48.98774" lon="0.73007">
        <ele>170.29</ele>
        <time>2020-06-14T08:29:11Z</time>
      </trkpt>
      <trkpt lat="48.9878" lon="0.73004">
        <ele>170.29</ele>
        <time>2020-06-14T08:29:12Z</time>
      </trkpt>
      <trkpt lat="48.98862" lon="0.72963">
        <ele>168.85</ele>
        <time>2020-06-14T08:29:27Z</time>
      </trkpt>
      <trkpt lat="48.98939" lon="0.72929">
        <ele>168.85</ele>
        <time>2020-06-14T08:29:41Z</time>
      </trkpt>
      <trkpt lat="48.99028" lon="0.7288">
        <ele>167.89</ele>
        <time>2020-06-14T08:29:56Z</time>
      </trkpt>
      <trkpt lat="48.99101" lon="0.72838">
        <ele>164.52</ele>
        <time>2020-06-14T08:30:07Z</time>
      </trkpt>
      <trkpt lat="48.99139" lon="0.72823">
        <ele>164.04</ele>
        <time>2020-06-14T08:30:12Z</time>
      </trkpt>
      <trkpt lat="48.99146" lon="0.72817">
        <ele>163.56</ele>
        <time>2020-06-14T08:30:13Z</time>
      </trkpt>
      <trkpt lat="48.99153" lon="0.7281">
        <ele>163.56</ele>
        <time>2020-06-14T08:30:14Z</time>
      </trkpt>
      <trkpt lat="48.99216" lon="0.72714">
        <ele>164.52</ele>
        <time>2020-06-14T08:30:26Z</time>
      </trkpt>
      <trkpt lat="48.99284" lon="0.72608">
        <ele>164.52</ele>
        <time>2020-06-14T08:30:41Z</time>
      </trkpt>
      <trkpt lat="48.99309" lon="0.72578">
        <ele>164.52</ele>
        <time>2020-06-14T08:30:46Z</time>
      </trkpt>
      <trkpt lat="48.99315" lon="0.72574">
        <ele>164.52</ele>
        <time>2020-06-14T08:30:47Z</time>
      </trkpt>
      <trkpt lat="48.9941" lon="0.7254">
        <ele>165</ele>
        <time>2020-06-14T08:31:02Z</time>
      </trkpt>
      <trkpt lat="48.99416" lon="0.72537">
        <ele>165</ele>
        <time>2020-06-14T08:31:03Z</time>
      </trkpt>
      <trkpt lat="48.99422" lon="0.72534">
        <ele>165</ele>
        <time>2020-06-14T08:31:04Z</time>
      </trkpt>
      <trkpt lat="48.99516" lon="0.7246">
        <ele>165</ele>
        <time>2020-06-14T08:31:21Z</time>
      </trkpt>
      <trkpt lat="48.99649" lon="0.7235">
        <ele>165.48</ele>
        <time>2020-06-14T08:31:46Z</time>
      </trkpt>
      <trkpt lat="48.99765" lon="0.72259">
        <ele>165.48</ele>
        <time>2020-06-14T08:32:07Z</time>
      </trkpt>
      <trkpt lat="48.99858" lon="0.72209">
        <ele>162.6</ele>
        <time>2020-06-14T08:32:22Z</time>
      </trkpt>
      <trkpt lat="48.99871" lon="0.72206">
        <ele>162.6</ele>
        <time>2020-06-14T08:32:24Z</time>
      </trkpt>
      <trkpt lat="48.9997" lon="0.72204">
        <ele>161.16</ele>
        <time>2020-06-14T08:32:39Z</time>
      </trkpt>
      <trkpt lat="49.00042" lon="0.72152">
        <ele>161.16</ele>
        <time>2020-06-14T08:32:51Z</time>
      </trkpt>
      <trkpt lat="49.00134" lon="0.72057">
        <ele>161.64</ele>
        <time>2020-06-14T08:33:09Z</time>
      </trkpt>
      <trkpt lat="49.00149" lon="0.72042">
        <ele>162.6</ele>
        <time>2020-06-14T08:33:12Z</time>
      </trkpt>
      <trkpt lat="49.00208" lon="0.71953">
        <ele>163.56</ele>
        <time>2020-06-14T08:33:26Z</time>
      </trkpt>
      <trkpt lat="49.00257" lon="0.71794">
        <ele>164.52</ele>
        <time>2020-06-14T08:33:46Z</time>
      </trkpt>
      <trkpt lat="49.00281" lon="0.71725">
        <ele>165.48</ele>
        <time>2020-06-14T08:33:56Z</time>
      </trkpt>
      <trkpt lat="49.00284" lon="0.7172">
        <ele>165.48</ele>
        <time>2020-06-14T08:33:57Z</time>
      </trkpt>
      <trkpt lat="49.00289" lon="0.71716">
        <ele>165.48</ele>
        <time>2020-06-14T08:33:58Z</time>
      </trkpt>
      <trkpt lat="49.00294" lon="0.71714">
        <ele>165.48</ele>
        <time>2020-06-14T08:33:59Z</time>
      </trkpt>
      <trkpt lat="49.003" lon="0.71715">
        <ele>165.96</ele>
        <time>2020-06-14T08:34:00Z</time>
      </trkpt>
      <trkpt lat="49.00304" lon="0.71717">
        <ele>165.96</ele>
        <time>2020-06-14T08:34:01Z</time>
      </trkpt>
      <trkpt lat="49.00309" lon="0.71721">
        <ele>165.96</ele>
        <time>2020-06-14T08:34:02Z</time>
      </trkpt>
      <trkpt lat="49.00358" lon="0.71754">
        <ele>166.45</ele>
        <time>2020-06-14T08:34:12Z</time>
      </trkpt>
      <trkpt lat="49.00363" lon="0.71755">
        <ele>166.45</ele>
        <time>2020-06-14T08:34:13Z</time>
      </trkpt>
      <trkpt lat="49.00368" lon="0.71754">
        <ele>166.45</ele>
        <time>2020-06-14T08:34:14Z</time>
      </trkpt>
      <trkpt lat="49.00374" lon="0.71749">
        <ele>166.45</ele>
        <time>2020-06-14T08:34:15Z</time>
      </trkpt>
      <trkpt lat="49.00378" lon="0.71744">
        <ele>166.45</ele>
        <time>2020-06-14T08:34:16Z</time>
      </trkpt>
      <trkpt lat="49.00381" lon="0.71737">
        <ele>166.45</ele>
        <time>2020-06-14T08:34:17Z</time>
      </trkpt>
      <trkpt lat="49.00383" lon="0.7173">
        <ele>166.45</ele>
        <time>2020-06-14T08:34:18Z</time>
      </trkpt>
      <trkpt lat="49.00385" lon="0.71723">
        <ele>166.45</ele>
        <time>2020-06-14T08:34:19Z</time>
      </trkpt>
      <trkpt lat="49.00387" lon="0.71715">
        <ele>166.45</ele>
        <time>2020-06-14T08:34:20Z</time>
      </trkpt>
      <trkpt lat="49.00388" lon="0.71708">
        <ele>166.45</ele>
        <time>2020-06-14T08:34:21Z</time>
      </trkpt>
      <trkpt lat="49.0039" lon="0.717">
        <ele>166.93</ele>
        <time>2020-06-14T08:34:22Z</time>
      </trkpt>
      <trkpt lat="49.00392" lon="0.71693">
        <ele>166.93</ele>
        <time>2020-06-14T08:34:23Z</time>
      </trkpt>
      <trkpt lat="49.00405" lon="0.7165">
        <ele>167.41</ele>
        <time>2020-06-14T08:34:29Z</time>
      </trkpt>
      <trkpt lat="49.00409" lon="0.71644">
        <ele>167.41</ele>
        <time>2020-06-14T08:34:30Z</time>
      </trkpt>
      <trkpt lat="49.00413" lon="0.7164">
        <ele>167.41</ele>
        <time>2020-06-14T08:34:31Z</time>
      </trkpt>
      <trkpt lat="49.00418" lon="0.71637">
        <ele>167.41</ele>
        <time>2020-06-14T08:34:32Z</time>
      </trkpt>
      <trkpt lat="49.00424" lon="0.71637">
        <ele>167.41</ele>
        <time>2020-06-14T08:34:33Z</time>
      </trkpt>
      <trkpt lat="49.00429" lon="0.71638">
        <ele>167.41</ele>
        <time>2020-06-14T08:34:34Z</time>
      </trkpt>
      <trkpt lat="49.00435" lon="0.71639">
        <ele>167.41</ele>
        <time>2020-06-14T08:34:35Z</time>
      </trkpt>
      <trkpt lat="49.00499" lon="0.71654">
        <ele>167.41</ele>
        <time>2020-06-14T08:34:47Z</time>
      </trkpt>
      <trkpt lat="49.00505" lon="0.71652">
        <ele>167.41</ele>
        <time>2020-06-14T08:34:48Z</time>
      </trkpt>
      <trkpt lat="49.0051" lon="0.7165">
        <ele>167.41</ele>
        <time>2020-06-14T08:34:49Z</time>
      </trkpt>
      <trkpt lat="49.00606" lon="0.71591">
        <ele>167.41</ele>
        <time>2020-06-14T08:35:07Z</time>
      </trkpt>
      <trkpt lat="49.00685" lon="0.71545">
        <ele>166.45</ele>
        <time>2020-06-14T08:35:21Z</time>
      </trkpt>
      <trkpt lat="49.00742" lon="0.71467">
        <ele>166.45</ele>
        <time>2020-06-14T08:35:34Z</time>
      </trkpt>
      <trkpt lat="49.00788" lon="0.71399">
        <ele>166.45</ele>
        <time>2020-06-14T08:35:45Z</time>
      </trkpt>
      <trkpt lat="49.00856" lon="0.71324">
        <ele>166.45</ele>
        <time>2020-06-14T08:36:01Z</time>
      </trkpt>
      <trkpt lat="49.00868" lon="0.71307">
        <ele>166.45</ele>
        <time>2020-06-14T08:36:04Z</time>
      </trkpt>
      <trkpt lat="49.00871" lon="0.71299">
        <ele>166.45</ele>
        <time>2020-06-14T08:36:05Z</time>
      </trkpt>
      <trkpt lat="49.00874" lon="0.71291">
        <ele>165.96</ele>
        <time>2020-06-14T08:36:06Z</time>
      </trkpt>
      <trkpt lat="49.00908" lon="0.71161">
        <ele>165.96</ele>
        <time>2020-06-14T08:36:22Z</time>
      </trkpt>
      <trkpt lat="49.00952" lon="0.70993">
        <ele>167.89</ele>
        <time>2020-06-14T08:36:43Z</time>
      </trkpt>
      <trkpt lat="49.01003" lon="0.70796">
        <ele>168.85</ele>
        <time>2020-06-14T08:37:06Z</time>
      </trkpt>
      <trkpt lat="49.01049" lon="0.7066">
        <ele>168.85</ele>
        <time>2020-06-14T08:37:23Z</time>
      </trkpt>
      <trkpt lat="49.01086" lon="0.70611">
        <ele>168.85</ele>
        <time>2020-06-14T08:37:31Z</time>
      </trkpt>
      <trkpt lat="49.01091" lon="0.70608">
        <ele>168.85</ele>
        <time>2020-06-14T08:37:32Z</time>
      </trkpt>
      <trkpt lat="49.01097" lon="0.70608">
        <ele>168.85</ele>
        <time>2020-06-14T08:37:33Z</time>
      </trkpt>
      <trkpt lat="49.01102" lon="0.70611">
        <ele>168.85</ele>
        <time>2020-06-14T08:37:34Z</time>
      </trkpt>
      <trkpt lat="49.01107" lon="0.70615">
        <ele>168.85</ele>
        <time>2020-06-14T08:37:35Z</time>
      </trkpt>
      <trkpt lat="49.01112" lon="0.70621">
        <ele>168.85</ele>
        <time>2020-06-14T08:37:36Z</time>
      </trkpt>
      <trkpt lat="49.01117" lon="0.70626">
        <ele>168.85</ele>
        <time>2020-06-14T08:37:37Z</time>
      </trkpt>
      <trkpt lat="49.01195" lon="0.70708">
        <ele>167.41</ele>
        <time>2020-06-14T08:37:54Z</time>
      </trkpt>
      <trkpt lat="49.01259" lon="0.70767">
        <ele>167.89</ele>
        <time>2020-06-14T08:38:07Z</time>
      </trkpt>
      <trkpt lat="49.01265" lon="0.7077">
        <ele>167.89</ele>
        <time>2020-06-14T08:38:08Z</time>
      </trkpt>
      <trkpt lat="49.01271" lon="0.7077">
        <ele>167.89</ele>
        <time>2020-06-14T08:38:09Z</time>
      </trkpt>
      <trkpt lat="49.01276" lon="0.70768">
        <ele>167.89</ele>
        <time>2020-06-14T08:38:10Z</time>
      </trkpt>
      <trkpt lat="49.01282" lon="0.70763">
        <ele>167.89</ele>
        <time>2020-06-14T08:38:11Z</time>
      </trkpt>
      <trkpt lat="49.01286" lon="0.70758">
        <ele>167.89</ele>
        <time>2020-06-14T08:38:12Z</time>
      </trkpt>
      <trkpt lat="49.0129" lon="0.70751">
        <ele>167.89</ele>
        <time>2020-06-14T08:38:13Z</time>
      </trkpt>
      <trkpt lat="49.01293" lon="0.70744">
        <ele>166.93</ele>
        <time>2020-06-14T08:38:14Z</time>
      </trkpt>
      <trkpt lat="49.01296" lon="0.70737">
        <ele>166.93</ele>
        <time>2020-06-14T08:38:15Z</time>
      </trkpt>
      <trkpt lat="49.01328" lon="0.70638">
        <ele>166.45</ele>
        <time>2020-06-14T08:38:28Z</time>
      </trkpt>
      <trkpt lat="49.01329" lon="0.70627">
        <ele>166.45</ele>
        <time>2020-06-14T08:38:29Z</time>
      </trkpt>
      <trkpt lat="49.01334" lon="0.70503">
        <ele>166.45</ele>
        <time>2020-06-14T08:38:46Z</time>
      </trkpt>
      <trkpt lat="49.01337" lon="0.70482">
        <ele>166.45</ele>
        <time>2020-06-14T08:38:49Z</time>
      </trkpt>
      <trkpt lat="49.01339" lon="0.70474">
        <ele>166.45</ele>
        <time>2020-06-14T08:38:50Z</time>
      </trkpt>
      <trkpt lat="49.01369" lon="0.70395">
        <ele>166.45</ele>
        <time>2020-06-14T08:39:01Z</time>
      </trkpt>
      <trkpt lat="49.01396" lon="0.70331">
        <ele>165.96</ele>
        <time>2020-06-14T08:39:11Z</time>
      </trkpt>
      <trkpt lat="49.014" lon="0.70326">
        <ele>165.96</ele>
        <time>2020-06-14T08:39:12Z</time>
      </trkpt>
      <trkpt lat="49.01406" lon="0.70323">
        <ele>165.96</ele>
        <time>2020-06-14T08:39:13Z</time>
      </trkpt>
      <trkpt lat="49.01415" lon="0.7032">
        <ele>165.48</ele>
        <time>2020-06-14T08:39:15Z</time>
      </trkpt>
      <trkpt lat="49.01421" lon="0.70319">
        <ele>165.48</ele>
        <time>2020-06-14T08:39:16Z</time>
      </trkpt>
      <trkpt lat="49.01426" lon="0.70319">
        <ele>165.48</ele>
        <time>2020-06-14T08:39:17Z</time>
      </trkpt>
      <trkpt lat="49.01468" lon="0.7033">
        <ele>165.48</ele>
        <time>2020-06-14T08:39:25Z</time>
      </trkpt>
      <trkpt lat="49.01472" lon="0.70333">
        <ele>165.48</ele>
        <time>2020-06-14T08:39:26Z</time>
      </trkpt>
      <trkpt lat="49.01477" lon="0.70337">
        <ele>165.48</ele>
        <time>2020-06-14T08:39:27Z</time>
      </trkpt>
      <trkpt lat="49.01482" lon="0.70339">
        <ele>165.48</ele>
        <time>2020-06-14T08:39:28Z</time>
      </trkpt>
      <trkpt lat="49.01486" lon="0.70342">
        <ele>165.48</ele>
        <time>2020-06-14T08:39:29Z</time>
      </trkpt>
      <trkpt lat="49.01495" lon="0.70349">
        <ele>165.48</ele>
        <time>2020-06-14T08:39:31Z</time>
      </trkpt>
      <trkpt lat="49.015" lon="0.70353">
        <ele>165.48</ele>
        <time>2020-06-14T08:39:32Z</time>
      </trkpt>
      <trkpt lat="49.01504" lon="0.70358">
        <ele>165.48</ele>
        <time>2020-06-14T08:39:33Z</time>
      </trkpt>
      <trkpt lat="49.01508" lon="0.70364">
        <ele>165.48</ele>
        <time>2020-06-14T08:39:34Z</time>
      </trkpt>
      <trkpt lat="49.01511" lon="0.70371">
        <ele>165.48</ele>
        <time>2020-06-14T08:39:35Z</time>
      </trkpt>
      <trkpt lat="49.01515" lon="0.70378">
        <ele>165</ele>
        <time>2020-06-14T08:39:36Z</time>
      </trkpt>
      <trkpt lat="49.01576" lon="0.7047">
        <ele>165</ele>
        <time>2020-06-14T08:39:51Z</time>
      </trkpt>
      <trkpt lat="49.01667" lon="0.70587">
        <ele>164.52</ele>
        <time>2020-06-14T08:40:11Z</time>
      </trkpt>
      <trkpt lat="49.01672" lon="0.70593">
        <ele>164.52</ele>
        <time>2020-06-14T08:40:12Z</time>
      </trkpt>
      <trkpt lat="49.01756" lon="0.70702">
        <ele>163.08</ele>
        <time>2020-06-14T08:40:29Z</time>
      </trkpt>
      <trkpt lat="49.01836" lon="0.70828">
        <ele>162.6</ele>
        <time>2020-06-14T08:40:45Z</time>
      </trkpt>
      <trkpt lat="49.01912" lon="0.71048">
        <ele>161.16</ele>
        <time>2020-06-14T08:41:04Z</time>
      </trkpt>
      <trkpt lat="49.01978" lon="0.71265">
        <ele>160.2</ele>
        <time>2020-06-14T08:41:22Z</time>
      </trkpt>
      <trkpt lat="49.0204" lon="0.71473">
        <ele>159.24</ele>
        <time>2020-06-14T08:41:40Z</time>
      </trkpt>
      <trkpt lat="49.02095" lon="0.71669">
        <ele>159.24</ele>
        <time>2020-06-14T08:41:58Z</time>
      </trkpt>
      <trkpt lat="49.02153" lon="0.7187">
        <ele>159.24</ele>
        <time>2020-06-14T08:42:17Z</time>
      </trkpt>
      <trkpt lat="49.02221" lon="0.72104">
        <ele>158.27</ele>
        <time>2020-06-14T08:42:38Z</time>
      </trkpt>
      <trkpt lat="49.02271" lon="0.7228">
        <ele>157.79</ele>
        <time>2020-06-14T08:42:55Z</time>
      </trkpt>
      <trkpt lat="49.02329" lon="0.7248">
        <ele>156.35</ele>
        <time>2020-06-14T08:43:13Z</time>
      </trkpt>
      <trkpt lat="49.02382" lon="0.72663">
        <ele>154.91</ele>
        <time>2020-06-14T08:43:30Z</time>
      </trkpt>
      <trkpt lat="49.02452" lon="0.72828">
        <ele>156.35</ele>
        <time>2020-06-14T08:43:48Z</time>
      </trkpt>
      <trkpt lat="49.02526" lon="0.72977">
        <ele>156.35</ele>
        <time>2020-06-14T08:44:05Z</time>
      </trkpt>
      <trkpt lat="49.02593" lon="0.73115">
        <ele>156.35</ele>
        <time>2020-06-14T08:44:20Z</time>
      </trkpt>
      <trkpt lat="49.02612" lon="0.73152">
        <ele>154.91</ele>
        <time>2020-06-14T08:44:24Z</time>
      </trkpt>
      <trkpt lat="49.02711" lon="0.73356">
        <ele>153.47</ele>
        <time>2020-06-14T08:44:45Z</time>
      </trkpt>
      <trkpt lat="49.02821" lon="0.73578">
        <ele>152.51</ele>
        <time>2020-06-14T08:45:08Z</time>
      </trkpt>
      <trkpt lat="49.02865" lon="0.73714">
        <ele>153.47</ele>
        <time>2020-06-14T08:45:22Z</time>
      </trkpt>
      <trkpt lat="49.02908" lon="0.73896">
        <ele>153.47</ele>
        <time>2020-06-14T08:45:41Z</time>
      </trkpt>
      <trkpt lat="49.02942" lon="0.74039">
        <ele>152.03</ele>
        <time>2020-06-14T08:45:55Z</time>
      </trkpt>
      <trkpt lat="49.02978" lon="0.74196">
        <ele>150.1</ele>
        <time>2020-06-14T08:46:10Z</time>
      </trkpt>
      <trkpt lat="49.02982" lon="0.74234">
        <ele>150.1</ele>
        <time>2020-06-14T08:46:13Z</time>
      </trkpt>
      <trkpt lat="49.02979" lon="0.74346">
        <ele>146.74</ele>
        <time>2020-06-14T08:46:21Z</time>
      </trkpt>
      <trkpt lat="49.02983" lon="0.74404">
        <ele>144.82</ele>
        <time>2020-06-14T08:46:25Z</time>
      </trkpt>
      <trkpt lat="49.02987" lon="0.74419">
        <ele>144.82</ele>
        <time>2020-06-14T08:46:26Z</time>
      </trkpt>
      <trkpt lat="49.0299" lon="0.74432">
        <ele>143.85</ele>
        <time>2020-06-14T08:46:27Z</time>
      </trkpt>
      <trkpt lat="49.02996" lon="0.74444">
        <ele>143.37</ele>
        <time>2020-06-14T08:46:28Z</time>
      </trkpt>
      <trkpt lat="49.03002" lon="0.74457">
        <ele>142.89</ele>
        <time>2020-06-14T08:46:29Z</time>
      </trkpt>
      <trkpt lat="49.03009" lon="0.74467">
        <ele>142.41</ele>
        <time>2020-06-14T08:46:30Z</time>
      </trkpt>
      <trkpt lat="49.03018" lon="0.74477">
        <ele>141.93</ele>
        <time>2020-06-14T08:46:31Z</time>
      </trkpt>
      <trkpt lat="49.03027" lon="0.74484">
        <ele>141.93</ele>
        <time>2020-06-14T08:46:32Z</time>
      </trkpt>
      <trkpt lat="49.03036" lon="0.7449">
        <ele>141.45</ele>
        <time>2020-06-14T08:46:33Z</time>
      </trkpt>
      <trkpt lat="49.03046" lon="0.74496">
        <ele>140.49</ele>
        <time>2020-06-14T08:46:34Z</time>
      </trkpt>
      <trkpt lat="49.03089" lon="0.74515">
        <ele>138.09</ele>
        <time>2020-06-14T08:46:38Z</time>
      </trkpt>
      <trkpt lat="49.03137" lon="0.74524">
        <ele>135.2</ele>
        <time>2020-06-14T08:46:42Z</time>
      </trkpt>
      <trkpt lat="49.0315" lon="0.74527">
        <ele>135.2</ele>
        <time>2020-06-14T08:46:43Z</time>
      </trkpt>
      <trkpt lat="49.03186" lon="0.74534">
        <ele>133.28</ele>
        <time>2020-06-14T08:46:46Z</time>
      </trkpt>
      <trkpt lat="49.03237" lon="0.74536">
        <ele>129.43</ele>
        <time>2020-06-14T08:46:50Z</time>
      </trkpt>
      <trkpt lat="49.03249" lon="0.74541">
        <ele>128.95</ele>
        <time>2020-06-14T08:46:51Z</time>
      </trkpt>
      <trkpt lat="49.03262" lon="0.74548">
        <ele>127.99</ele>
        <time>2020-06-14T08:46:52Z</time>
      </trkpt>
      <trkpt lat="49.03308" lon="0.7458">
        <ele>124.63</ele>
        <time>2020-06-14T08:46:56Z</time>
      </trkpt>
      <trkpt lat="49.03354" lon="0.74611">
        <ele>122.22</ele>
        <time>2020-06-14T08:47:00Z</time>
      </trkpt>
      <trkpt lat="49.034" lon="0.74639">
        <ele>119.34</ele>
        <time>2020-06-14T08:47:04Z</time>
      </trkpt>
      <trkpt lat="49.03446" lon="0.74665">
        <ele>116.46</ele>
        <time>2020-06-14T08:47:08Z</time>
      </trkpt>
      <trkpt lat="49.03479" lon="0.74685">
        <ele>114.53</ele>
        <time>2020-06-14T08:47:11Z</time>
      </trkpt>
      <trkpt lat="49.03524" lon="0.7471">
        <ele>112.13</ele>
        <time>2020-06-14T08:47:15Z</time>
      </trkpt>
      <trkpt lat="49.03536" lon="0.74713">
        <ele>111.17</ele>
        <time>2020-06-14T08:47:16Z</time>
      </trkpt>
      <trkpt lat="49.03549" lon="0.74714">
        <ele>111.17</ele>
        <time>2020-06-14T08:47:17Z</time>
      </trkpt>
      <trkpt lat="49.03562" lon="0.74712">
        <ele>111.17</ele>
        <time>2020-06-14T08:47:18Z</time>
      </trkpt>
      <trkpt lat="49.03573" lon="0.74708">
        <ele>111.17</ele>
        <time>2020-06-14T08:47:19Z</time>
      </trkpt>
      <trkpt lat="49.03584" lon="0.74703">
        <ele>111.17</ele>
        <time>2020-06-14T08:47:20Z</time>
      </trkpt>
      <trkpt lat="49.03595" lon="0.74695">
        <ele>111.17</ele>
        <time>2020-06-14T08:47:21Z</time>
      </trkpt>
      <trkpt lat="49.03605" lon="0.74688">
        <ele>111.17</ele>
        <time>2020-06-14T08:47:22Z</time>
      </trkpt>
      <trkpt lat="49.03625" lon="0.74673">
        <ele>110.69</ele>
        <time>2020-06-14T08:47:24Z</time>
      </trkpt>
      <trkpt lat="49.03636" lon="0.74669">
        <ele>110.69</ele>
        <time>2020-06-14T08:47:25Z</time>
      </trkpt>
      <trkpt lat="49.03647" lon="0.74666">
        <ele>110.69</ele>
        <time>2020-06-14T08:47:26Z</time>
      </trkpt>
      <trkpt lat="49.03657" lon="0.74665">
        <ele>110.69</ele>
        <time>2020-06-14T08:47:27Z</time>
      </trkpt>
      <trkpt lat="49.03668" lon="0.74665">
        <ele>110.69</ele>
        <time>2020-06-14T08:47:28Z</time>
      </trkpt>
      <trkpt lat="49.0378" lon="0.74678">
        <ele>110.69</ele>
        <time>2020-06-14T08:47:39Z</time>
      </trkpt>
      <trkpt lat="49.03867" lon="0.74711">
        <ele>110.21</ele>
        <time>2020-06-14T08:47:48Z</time>
      </trkpt>
      <trkpt lat="49.0396" lon="0.74799">
        <ele>109.73</ele>
        <time>2020-06-14T08:47:59Z</time>
      </trkpt>
      <trkpt lat="49.04015" lon="0.74858">
        <ele>109.25</ele>
        <time>2020-06-14T08:48:08Z</time>
      </trkpt>
      <trkpt lat="49.04021" lon="0.74864">
        <ele>109.25</ele>
        <time>2020-06-14T08:48:09Z</time>
      </trkpt>
      <trkpt lat="49.04109" lon="0.74932">
        <ele>109.25</ele>
        <time>2020-06-14T08:48:23Z</time>
      </trkpt>
      <trkpt lat="49.04229" lon="0.75011">
        <ele>109.73</ele>
        <time>2020-06-14T08:48:42Z</time>
      </trkpt>
      <trkpt lat="49.04331" lon="0.75087">
        <ele>108.29</ele>
        <time>2020-06-14T08:48:57Z</time>
      </trkpt>
      <trkpt lat="49.04425" lon="0.75153">
        <ele>107.81</ele>
        <time>2020-06-14T08:49:11Z</time>
      </trkpt>
      <trkpt lat="49.0453" lon="0.75203">
        <ele>107.32</ele>
        <time>2020-06-14T08:49:26Z</time>
      </trkpt>
      <trkpt lat="49.04572" lon="0.75213">
        <ele>107.32</ele>
        <time>2020-06-14T08:49:32Z</time>
      </trkpt>
      <trkpt lat="49.04659" lon="0.75185">
        <ele>107.32</ele>
        <time>2020-06-14T08:49:44Z</time>
      </trkpt>
      <trkpt lat="49.04762" lon="0.75122">
        <ele>105.88</ele>
        <time>2020-06-14T08:49:59Z</time>
      </trkpt>
      <trkpt lat="49.04856" lon="0.75082">
        <ele>104.92</ele>
        <time>2020-06-14T08:50:12Z</time>
      </trkpt>
      <trkpt lat="49.0496" lon="0.75084">
        <ele>104.44</ele>
        <time>2020-06-14T08:50:26Z</time>
      </trkpt>
      <trkpt lat="49.05075" lon="0.75128">
        <ele>104.44</ele>
        <time>2020-06-14T08:50:42Z</time>
      </trkpt>
      <trkpt lat="49.0517" lon="0.75214">
        <ele>104.44</ele>
        <time>2020-06-14T08:50:57Z</time>
      </trkpt>
      <trkpt lat="49.05262" lon="0.75307">
        <ele>104.44</ele>
        <time>2020-06-14T08:51:12Z</time>
      </trkpt>
      <trkpt lat="49.05349" lon="0.75396">
        <ele>105.4</ele>
        <time>2020-06-14T08:51:26Z</time>
      </trkpt>
      <trkpt lat="49.05431" lon="0.75467">
        <ele>102.52</ele>
        <time>2020-06-14T08:51:38Z</time>
      </trkpt>
      <trkpt lat="49.0553" lon="0.75551">
        <ele>100.6</ele>
        <time>2020-06-14T08:51:52Z</time>
      </trkpt>
      <trkpt lat="49.05587" lon="0.75597">
        <ele>100.11</ele>
        <time>2020-06-14T08:52:00Z</time>
      </trkpt>
      <trkpt lat="49.05594" lon="0.756">
        <ele>100.11</ele>
        <time>2020-06-14T08:52:01Z</time>
      </trkpt>
      <trkpt lat="49.05602" lon="0.75601">
        <ele>100.11</ele>
        <time>2020-06-14T08:52:02Z</time>
      </trkpt>
      <trkpt lat="49.0561" lon="0.75601">
        <ele>100.11</ele>
        <time>2020-06-14T08:52:03Z</time>
      </trkpt>
      <trkpt lat="49.05618" lon="0.75599">
        <ele>100.11</ele>
        <time>2020-06-14T08:52:04Z</time>
      </trkpt>
      <trkpt lat="49.05626" lon="0.75596">
        <ele>100.11</ele>
        <time>2020-06-14T08:52:05Z</time>
      </trkpt>
      <trkpt lat="49.05633" lon="0.75592">
        <ele>100.11</ele>
        <time>2020-06-14T08:52:06Z</time>
      </trkpt>
      <trkpt lat="49.05728" lon="0.75527">
        <ele>99.63</ele>
        <time>2020-06-14T08:52:20Z</time>
      </trkpt>
      <trkpt lat="49.05829" lon="0.75457">
        <ele>99.63</ele>
        <time>2020-06-14T08:52:35Z</time>
      </trkpt>
      <trkpt lat="49.05947" lon="0.7538">
        <ele>99.63</ele>
        <time>2020-06-14T08:52:53Z</time>
      </trkpt>
      <trkpt lat="49.06017" lon="0.75381">
        <ele>99.63</ele>
        <time>2020-06-14T08:53:03Z</time>
      </trkpt>
      <trkpt lat="49.06137" lon="0.75439">
        <ele>98.67</ele>
        <time>2020-06-14T08:53:20Z</time>
      </trkpt>
      <trkpt lat="49.06171" lon="0.75457">
        <ele>98.19</ele>
        <time>2020-06-14T08:53:25Z</time>
      </trkpt>
      <trkpt lat="49.06177" lon="0.75463">
        <ele>98.19</ele>
        <time>2020-06-14T08:53:26Z</time>
      </trkpt>
      <trkpt lat="49.06183" lon="0.7547">
        <ele>98.19</ele>
        <time>2020-06-14T08:53:27Z</time>
      </trkpt>
      <trkpt lat="49.06189" lon="0.75478">
        <ele>98.19</ele>
        <time>2020-06-14T08:53:28Z</time>
      </trkpt>
      <trkpt lat="49.06194" lon="0.75487">
        <ele>98.19</ele>
        <time>2020-06-14T08:53:29Z</time>
      </trkpt>
      <trkpt lat="49.06287" lon="0.75642">
        <ele>96.75</ele>
        <time>2020-06-14T08:53:47Z</time>
      </trkpt>
      <trkpt lat="49.06389" lon="0.7581">
        <ele>95.79</ele>
        <time>2020-06-14T08:54:05Z</time>
      </trkpt>
      <trkpt lat="49.06509" lon="0.76005">
        <ele>94.83</ele>
        <time>2020-06-14T08:54:26Z</time>
      </trkpt>
      <trkpt lat="49.06626" lon="0.76128">
        <ele>94.35</ele>
        <time>2020-06-14T08:54:43Z</time>
      </trkpt>
      <trkpt lat="49.06764" lon="0.76272">
        <ele>93.39</ele>
        <time>2020-06-14T08:55:04Z</time>
      </trkpt>
      <trkpt lat="49.06812" lon="0.76307">
        <ele>93.39</ele>
        <time>2020-06-14T08:55:11Z</time>
      </trkpt>
      <trkpt lat="49.06827" lon="0.76311">
        <ele>93.39</ele>
        <time>2020-06-14T08:55:13Z</time>
      </trkpt>
      <trkpt lat="49.06842" lon="0.76311">
        <ele>93.39</ele>
        <time>2020-06-14T08:55:15Z</time>
      </trkpt>
      <trkpt lat="49.06872" lon="0.76302">
        <ele>93.39</ele>
        <time>2020-06-14T08:55:19Z</time>
      </trkpt>
      <trkpt lat="49.06971" lon="0.76247">
        <ele>93.39</ele>
        <time>2020-06-14T08:55:33Z</time>
      </trkpt>
      <trkpt lat="49.06979" lon="0.76246">
        <ele>93.39</ele>
        <time>2020-06-14T08:55:34Z</time>
      </trkpt>
      <trkpt lat="49.06987" lon="0.76248">
        <ele>93.39</ele>
        <time>2020-06-14T08:55:35Z</time>
      </trkpt>
      <trkpt lat="49.06997" lon="0.76252">
        <ele>93.39</ele>
        <time>2020-06-14T08:55:36Z</time>
      </trkpt>
      <trkpt lat="49.07002" lon="0.76255">
        <ele>93.39</ele>
        <time>2020-06-14T08:55:37Z</time>
      </trkpt>
      <trkpt lat="49.07105" lon="0.76347">
        <ele>92.42</ele>
        <time>2020-06-14T08:55:52Z</time>
      </trkpt>
      <trkpt lat="49.07191" lon="0.76493">
        <ele>91.94</ele>
        <time>2020-06-14T08:56:08Z</time>
      </trkpt>
      <trkpt lat="49.07262" lon="0.7665">
        <ele>90.98</ele>
        <time>2020-06-14T08:56:24Z</time>
      </trkpt>
      <trkpt lat="49.07312" lon="0.76763">
        <ele>92.42</ele>
        <time>2020-06-14T08:56:36Z</time>
      </trkpt>
      <trkpt lat="49.07332" lon="0.76806">
        <ele>92.9</ele>
        <time>2020-06-14T08:56:41Z</time>
      </trkpt>
      <trkpt lat="49.07334" lon="0.76816">
        <ele>92.9</ele>
        <time>2020-06-14T08:56:42Z</time>
      </trkpt>
      <trkpt lat="49.07335" lon="0.76827">
        <ele>93.39</ele>
        <time>2020-06-14T08:56:43Z</time>
      </trkpt>
      <trkpt lat="49.07335" lon="0.76839">
        <ele>93.39</ele>
        <time>2020-06-14T08:56:44Z</time>
      </trkpt>
      <trkpt lat="49.07333" lon="0.76851">
        <ele>93.39</ele>
        <time>2020-06-14T08:56:45Z</time>
      </trkpt>
      <trkpt lat="49.07332" lon="0.76858">
        <ele>93.39</ele>
        <time>2020-06-14T08:56:46Z</time>
      </trkpt>
      <trkpt lat="49.0733" lon="0.76866">
        <ele>93.39</ele>
        <time>2020-06-14T08:56:47Z</time>
      </trkpt>
      <trkpt lat="49.07277" lon="0.77029">
        <ele>94.35</ele>
        <time>2020-06-14T08:57:05Z</time>
      </trkpt>
      <trkpt lat="49.07271" lon="0.77156">
        <ele>97.23</ele>
        <time>2020-06-14T08:57:19Z</time>
      </trkpt>
      <trkpt lat="49.07273" lon="0.77212">
        <ele>99.63</ele>
        <time>2020-06-14T08:57:26Z</time>
      </trkpt>
      <trkpt lat="49.07271" lon="0.77216">
        <ele>100.11</ele>
        <time>2020-06-14T08:57:27Z</time>
      </trkpt>
      <trkpt lat="49.07269" lon="0.77222">
        <ele>100.6</ele>
        <time>2020-06-14T08:57:28Z</time>
      </trkpt>
      <trkpt lat="49.07265" lon="0.77228">
        <ele>100.6</ele>
        <time>2020-06-14T08:57:29Z</time>
      </trkpt>
      <trkpt lat="49.0726" lon="0.77234">
        <ele>100.6</ele>
        <time>2020-06-14T08:57:30Z</time>
      </trkpt>
      <trkpt lat="49.07258" lon="0.77239">
        <ele>101.56</ele>
        <time>2020-06-14T08:57:31Z</time>
      </trkpt>
      <trkpt lat="49.07256" lon="0.77244">
        <ele>102.04</ele>
        <time>2020-06-14T08:57:32Z</time>
      </trkpt>
      <trkpt lat="49.07256" lon="0.7725">
        <ele>103</ele>
        <time>2020-06-14T08:57:33Z</time>
      </trkpt>
      <trkpt lat="49.07258" lon="0.77255">
        <ele>103.48</ele>
        <time>2020-06-14T08:57:34Z</time>
      </trkpt>
      <trkpt lat="49.0726" lon="0.7726">
        <ele>103.48</ele>
        <time>2020-06-14T08:57:35Z</time>
      </trkpt>
      <trkpt lat="49.07264" lon="0.77264">
        <ele>103.96</ele>
        <time>2020-06-14T08:57:36Z</time>
      </trkpt>
      <trkpt lat="49.07268" lon="0.77267">
        <ele>103.96</ele>
        <time>2020-06-14T08:57:37Z</time>
      </trkpt>
      <trkpt lat="49.07275" lon="0.77272">
        <ele>103.96</ele>
        <time>2020-06-14T08:57:39Z</time>
      </trkpt>
      <trkpt lat="49.07282" lon="0.77279">
        <ele>102.52</ele>
        <time>2020-06-14T08:57:40Z</time>
      </trkpt>
      <trkpt lat="49.07286" lon="0.77285">
        <ele>101.56</ele>
        <time>2020-06-14T08:57:41Z</time>
      </trkpt>
      <trkpt lat="49.07295" lon="0.773">
        <ele>101.56</ele>
        <time>2020-06-14T08:57:43Z</time>
      </trkpt>
      <trkpt lat="49.07312" lon="0.7732">
        <ele>100.11</ele>
        <time>2020-06-14T08:57:46Z</time>
      </trkpt>
      <trkpt lat="49.07318" lon="0.77325">
        <ele>99.15</ele>
        <time>2020-06-14T08:57:47Z</time>
      </trkpt>
      <trkpt lat="49.07325" lon="0.7733">
        <ele>99.15</ele>
        <time>2020-06-14T08:57:48Z</time>
      </trkpt>
      <trkpt lat="49.0741" lon="0.77375">
        <ele>96.27</ele>
        <time>2020-06-14T08:58:00Z</time>
      </trkpt>
      <trkpt lat="49.07434" lon="0.77387">
        <ele>94.83</ele>
        <time>2020-06-14T08:58:03Z</time>
      </trkpt>
      <trkpt lat="49.07468" lon="0.77403">
        <ele>92.42</ele>
        <time>2020-06-14T08:58:07Z</time>
      </trkpt>
      <trkpt lat="49.07584" lon="0.77459">
        <ele>90.98</ele>
        <time>2020-06-14T08:58:22Z</time>
      </trkpt>
      <trkpt lat="49.07592" lon="0.77461">
        <ele>90.98</ele>
        <time>2020-06-14T08:58:23Z</time>
      </trkpt>
      <trkpt lat="49.07599" lon="0.77461">
        <ele>90.98</ele>
        <time>2020-06-14T08:58:24Z</time>
      </trkpt>
      <trkpt lat="49.07607" lon="0.77458">
        <ele>90.98</ele>
        <time>2020-06-14T08:58:25Z</time>
      </trkpt>
      <trkpt lat="49.07613" lon="0.77454">
        <ele>90.98</ele>
        <time>2020-06-14T08:58:26Z</time>
      </trkpt>
      <trkpt lat="49.07619" lon="0.77448">
        <ele>90.98</ele>
        <time>2020-06-14T08:58:27Z</time>
      </trkpt>
      <trkpt lat="49.07624" lon="0.77441">
        <ele>90.98</ele>
        <time>2020-06-14T08:58:28Z</time>
      </trkpt>
      <trkpt lat="49.07684" lon="0.77362">
        <ele>90.98</ele>
        <time>2020-06-14T08:58:42Z</time>
      </trkpt>
      <trkpt lat="49.07733" lon="0.77303">
        <ele>90.98</ele>
        <time>2020-06-14T08:58:57Z</time>
      </trkpt>
      <trkpt lat="49.0774" lon="0.77297">
        <ele>90.98</ele>
        <time>2020-06-14T08:58:59Z</time>
      </trkpt>
      <trkpt lat="49.07744" lon="0.77295">
        <ele>90.98</ele>
        <time>2020-06-14T08:59:00Z</time>
      </trkpt>
      <trkpt lat="49.07749" lon="0.77296">
        <ele>90.98</ele>
        <time>2020-06-14T08:59:01Z</time>
      </trkpt>
      <trkpt lat="49.07753" lon="0.77299">
        <ele>90.98</ele>
        <time>2020-06-14T08:59:02Z</time>
      </trkpt>
      <trkpt lat="49.07757" lon="0.77303">
        <ele>90.98</ele>
        <time>2020-06-14T08:59:03Z</time>
      </trkpt>
      <trkpt lat="49.07761" lon="0.77307">
        <ele>90.98</ele>
        <time>2020-06-14T08:59:04Z</time>
      </trkpt>
      <trkpt lat="49.07816" lon="0.77359">
        <ele>90.98</ele>
        <time>2020-06-14T08:59:19Z</time>
      </trkpt>
      <trkpt lat="49.07822" lon="0.77366">
        <ele>90.98</ele>
        <time>2020-06-14T08:59:21Z</time>
      </trkpt>
      <trkpt lat="49.07836" lon="0.77376">
        <ele>90.98</ele>
        <time>2020-06-14T08:59:25Z</time>
      </trkpt>
      <trkpt lat="49.0784" lon="0.77374">
        <ele>92.42</ele>
        <time>2020-06-14T08:59:26Z</time>
      </trkpt>
      <trkpt lat="49.07843" lon="0.7737">
        <ele>92.42</ele>
        <time>2020-06-14T08:59:27Z</time>
      </trkpt>
      <trkpt lat="49.07846" lon="0.77364">
        <ele>92.42</ele>
        <time>2020-06-14T08:59:28Z</time>
      </trkpt>
      <trkpt lat="49.07849" lon="0.77359">
        <ele>92.42</ele>
        <time>2020-06-14T08:59:29Z</time>
      </trkpt>
      <trkpt lat="49.07865" lon="0.77331">
        <ele>90.98</ele>
        <time>2020-06-14T08:59:34Z</time>
      </trkpt>
      <trkpt lat="49.07896" lon="0.77281">
        <ele>90.5</ele>
        <time>2020-06-14T08:59:43Z</time>
      </trkpt>
      <trkpt lat="49.079" lon="0.77275">
        <ele>90.5</ele>
        <time>2020-06-14T08:59:44Z</time>
      </trkpt>
      <trkpt lat="49.07904" lon="0.7727">
        <ele>90.5</ele>
        <time>2020-06-14T08:59:45Z</time>
      </trkpt>
      <trkpt lat="49.0796" lon="0.77228">
        <ele>89.54</ele>
        <time>2020-06-14T08:59:57Z</time>
      </trkpt>
      <trkpt lat="49.08028" lon="0.77185">
        <ele>89.06</ele>
        <time>2020-06-14T09:00:12Z</time>
      </trkpt>
      <trkpt lat="49.08045" lon="0.77175">
        <ele>89.06</ele>
        <time>2020-06-14T09:00:21Z</time>
      </trkpt>
      <trkpt lat="49.08051" lon="0.7717">
        <ele>89.06</ele>
        <time>2020-06-14T09:00:41Z</time>
      </trkpt>
      <trkpt lat="49.08051" lon="0.77166">
        <ele>89.06</ele>
        <time>2020-06-14T09:00:42Z</time>
      </trkpt>
      <trkpt lat="49.08051" lon="0.77162">
        <ele>89.06</ele>
        <time>2020-06-14T09:00:43Z</time>
      </trkpt>
      <trkpt lat="49.0805" lon="0.77159">
        <ele>89.06</ele>
        <time>2020-06-14T09:00:44Z</time>
      </trkpt>
      <trkpt lat="49.08048" lon="0.77154">
        <ele>89.06</ele>
        <time>2020-06-14T09:00:45Z</time>
      </trkpt>
      <trkpt lat="49.08022" lon="0.77057">
        <ele>89.06</ele>
        <time>2020-06-14T09:00:59Z</time>
      </trkpt>
      <trkpt lat="49.08015" lon="0.77026">
        <ele>90.02</ele>
        <time>2020-06-14T09:01:03Z</time>
      </trkpt>
      <trkpt lat="49.07986" lon="0.76903">
        <ele>90.02</ele>
        <time>2020-06-14T09:01:20Z</time>
      </trkpt>
      <trkpt lat="49.07954" lon="0.76771">
        <ele>90.02</ele>
        <time>2020-06-14T09:01:36Z</time>
      </trkpt>
      <trkpt lat="49.07946" lon="0.76703">
        <ele>90.02</ele>
        <time>2020-06-14T09:01:43Z</time>
      </trkpt>
      <trkpt lat="49.07947" lon="0.76698">
        <ele>90.02</ele>
        <time>2020-06-14T09:01:44Z</time>
      </trkpt>
      <trkpt lat="49.07949" lon="0.76691">
        <ele>90.02</ele>
        <time>2020-06-14T09:01:45Z</time>
      </trkpt>
      <trkpt lat="49.07953" lon="0.76682">
        <ele>90.02</ele>
        <time>2020-06-14T09:01:46Z</time>
      </trkpt>
      <trkpt lat="49.07959" lon="0.7667">
        <ele>90.02</ele>
        <time>2020-06-14T09:01:48Z</time>
      </trkpt>
      <trkpt lat="49.07965" lon="0.76662">
        <ele>90.02</ele>
        <time>2020-06-14T09:01:49Z</time>
      </trkpt>
      <trkpt lat="49.08025" lon="0.7662">
        <ele>90.98</ele>
        <time>2020-06-14T09:02:02Z</time>
      </trkpt>
      <trkpt lat="49.0811" lon="0.7658">
        <ele>90.02</ele>
        <time>2020-06-14T09:02:20Z</time>
      </trkpt>
      <trkpt lat="49.08115" lon="0.76577">
        <ele>90.02</ele>
        <time>2020-06-14T09:02:21Z</time>
      </trkpt>
      <trkpt lat="49.08199" lon="0.76534">
        <ele>90.02</ele>
        <time>2020-06-14T09:02:37Z</time>
      </trkpt>
      <trkpt lat="49.08263" lon="0.76487">
        <ele>89.54</ele>
        <time>2020-06-14T09:02:50Z</time>
      </trkpt>
      <trkpt lat="49.08319" lon="0.76455">
        <ele>89.54</ele>
        <time>2020-06-14T09:03:02Z</time>
      </trkpt>
      <trkpt lat="49.08324" lon="0.76453">
        <ele>89.54</ele>
        <time>2020-06-14T09:03:03Z</time>
      </trkpt>
      <trkpt lat="49.08328" lon="0.76453">
        <ele>89.54</ele>
        <time>2020-06-14T09:03:04Z</time>
      </trkpt>
      <trkpt lat="49.08332" lon="0.76452">
        <ele>89.54</ele>
        <time>2020-06-14T09:03:05Z</time>
      </trkpt>
      <trkpt lat="49.08336" lon="0.7645">
        <ele>89.54</ele>
        <time>2020-06-14T09:03:06Z</time>
      </trkpt>
      <trkpt lat="49.08341" lon="0.76449">
        <ele>89.54</ele>
        <time>2020-06-14T09:03:07Z</time>
      </trkpt>
      <trkpt lat="49.08346" lon="0.76449">
        <ele>89.54</ele>
        <time>2020-06-14T09:03:08Z</time>
      </trkpt>
      <trkpt lat="49.08351" lon="0.7645">
        <ele>89.54</ele>
        <time>2020-06-14T09:03:09Z</time>
      </trkpt>
      <trkpt lat="49.08355" lon="0.76453">
        <ele>89.54</ele>
        <time>2020-06-14T09:03:10Z</time>
      </trkpt>
      <trkpt lat="49.08359" lon="0.76456">
        <ele>89.54</ele>
        <time>2020-06-14T09:03:11Z</time>
      </trkpt>
      <trkpt lat="49.08364" lon="0.76458">
        <ele>89.54</ele>
        <time>2020-06-14T09:03:12Z</time>
      </trkpt>
      <trkpt lat="49.08368" lon="0.76459">
        <ele>89.54</ele>
        <time>2020-06-14T09:03:13Z</time>
      </trkpt>
      <trkpt lat="49.08372" lon="0.76459">
        <ele>89.54</ele>
        <time>2020-06-14T09:03:14Z</time>
      </trkpt>
      <trkpt lat="49.08377" lon="0.76456">
        <ele>89.54</ele>
        <time>2020-06-14T09:03:15Z</time>
      </trkpt>
      <trkpt lat="49.08381" lon="0.7645">
        <ele>89.54</ele>
        <time>2020-06-14T09:03:16Z</time>
      </trkpt>
      <trkpt lat="49.08383" lon="0.76445">
        <ele>89.54</ele>
        <time>2020-06-14T09:03:17Z</time>
      </trkpt>
      <trkpt lat="49.08386" lon="0.76438">
        <ele>89.54</ele>
        <time>2020-06-14T09:03:18Z</time>
      </trkpt>
      <trkpt lat="49.08388" lon="0.76431">
        <ele>89.54</ele>
        <time>2020-06-14T09:03:19Z</time>
      </trkpt>
      <trkpt lat="49.0839" lon="0.76424">
        <ele>89.54</ele>
        <time>2020-06-14T09:03:20Z</time>
      </trkpt>
      <trkpt lat="49.08426" lon="0.76317">
        <ele>89.54</ele>
        <time>2020-06-14T09:03:36Z</time>
      </trkpt>
      <trkpt lat="49.08446" lon="0.76256">
        <ele>89.06</ele>
        <time>2020-06-14T09:03:46Z</time>
      </trkpt>
      <trkpt lat="49.08472" lon="0.76159">
        <ele>90.5</ele>
        <time>2020-06-14T09:04:05Z</time>
      </trkpt>
      <trkpt lat="49.08478" lon="0.76132">
        <ele>90.02</ele>
        <time>2020-06-14T09:04:16Z</time>
      </trkpt>
      <trkpt lat="49.08475" lon="0.76132">
        <ele>90.02</ele>
        <time>2020-06-14T09:04:32Z</time>
      </trkpt>
      <trkpt lat="49.08474" lon="0.76132">
        <ele>90.02</ele>
        <time>2020-06-14T09:04:45Z</time>
      </trkpt>
    </trkseg>
  </trk>
</gpx>